Time,TemperatureF,DewpointF,PressureIn,WindDirection,WindDirectionDegrees,WindSpeedMPH,WindSpeedGustMPH,Humidity,HourlyPrecipIn,Conditions,Clouds,dailyrainin,SoftwareType,DateUTC
2013-01-06 00:00:00,31.3,-99.9,-100.00,North,0,0.0,0.0,-999,0.00,,---,2.56,VWS V14.01,2013-01-06 05:00:00,
2013-01-06 00:01:00,31.7,-99.9,-100.00,WSW,242,0.0,7.0,-999,0.00,,---,0.00,VWS V14.01,2013-01-06 05:01:00,
2013-01-06 00:02:00,31.0,-99.9,-100.00,SW,222,5.0,7.5,-999,0.00,,---,0.00,VWS V14.01,2013-01-06 05:02:00,
2013-01-06 00:03:00,31.0,-99.9,-100.00,West,260,0.0,7.5,-999,0.00,,---,0.00,VWS V14.01,2013-01-06 05:03:00,
2013-01-06 00:04:00,31.7,-99.9,-100.00,SSW,210,0.0,7.5,-999,0.00,,---,0.00,VWS V14.01,2013-01-06 05:04:00,
2013-01-06 00:05:00,31.0,-99.9,-100.00,SSW,210,0.0,7.5,-999,0.00,,---,0.00,VWS V14.01,2013-01-06 05:05:00,
2013-01-06 00:06:00,31.3,-99.9,-100.00,SSW,210,0.0,7.5,-999,0.00,,---,0.00,VWS V14.01,2013-01-06 05:06:00,
2013-01-06 00:07:00,31.3,-99.9,-100.00,SSW,210,0.0,7.5,-999,0.00,,---,0.00,VWS V14.01,2013-01-06 05:07:00,
2013-01-06 00:08:00,31.3,-99.9,-100.00,SSW,210,0.0,7.5,-999,0.00,,---,0.00,VWS V14.01,2013-01-06 05:08:00,
2013-01-06 00:09:00,31.5,-99.9,-100.00,WSW,253,0.0,7.8,-999,0.00,,---,0.00,VWS V14.01,2013-01-06 05:09:00,
2013-01-06 00:10:00,31.3,-99.9,-100.00,SSW,198,0.0,7.8,-999,0.00,,---,0.00,VWS V14.01,2013-01-06 05:10:00,
2013-01-06 00:11:00,31.3,-99.9,-100.00,SSW,198,0.0,7.8,-999,0.00,,---,0.00,VWS V14.01,2013-01-06 05:11:00,
2013-01-06 00:12:00,31.6,-99.9,-100.00,WSW,249,5.2,10.3,-999,0.00,,---,0.00,VWS V14.01,2013-01-06 05:12:00,
2013-01-06 00:13:00,31.3,-99.9,-100.00,SSW,198,0.0,7.8,-999,0.00,,---,0.00,VWS V14.01,2013-01-06 05:13:00,
2013-01-06 00:14:00,31.0,-99.9,-100.00,SSW,198,0.0,7.8,-999,0.00,,---,0.00,VWS V14.01,2013-01-06 05:14:00,
2013-01-06 00:15:00,31.3,-99.9,-100.00,SW,221,5.1,7.8,-999,0.00,,---,0.00,VWS V14.01,2013-01-06 05:15:00,
2013-01-06 00:16:00,31.5,-99.9,-100.00,SW,221,0.0,7.8,-999,0.00,,---,0.00,VWS V14.01,2013-01-06 05:16:00,
2013-01-06 00:17:00,32.0,-99.9,-100.00,SSE,156,6.6,7.1,-999,0.00,,---,0.00,VWS V14.01,2013-01-06 05:17:00,
2013-01-06 00:18:00,31.3,-99.9,-100.00,SSW,198,5.8,7.8,-999,0.00,,---,0.00,VWS V14.01,2013-01-06 05:18:00,
2013-01-06 00:19:00,31.3,-99.9,-100.00,SW,235,0.0,7.8,-999,0.00,,---,0.00,VWS V14.01,2013-01-06 05:19:00,
2013-01-06 00:20:00,31.0,-99.9,-100.00,SSW,198,0.0,7.8,-999,0.00,,---,0.00,VWS V14.01,2013-01-06 05:20:00,
2013-01-06 00:21:00,31.0,-99.9,-100.00,SSW,198,0.0,7.8,-999,0.00,,---,0.00,VWS V14.01,2013-01-06 05:21:00,
2013-01-06 00:22:00,32.5,-99.9,-100.00,SSW,208,9.9,9.9,-999,0.00,,---,0.00,VWS V14.01,2013-01-06 05:22:00,
2013-01-06 00:23:00,31.0,-99.9,-100.00,SSW,198,0.0,7.8,-999,0.00,,---,0.00,VWS V14.01,2013-01-06 05:23:00,
2013-01-06 00:24:00,31.3,-99.9,-100.00,SSW,198,0.0,7.8,-999,0.00,,---,0.00,VWS V14.01,2013-01-06 05:24:00,
2013-01-06 00:25:00,31.0,-99.9,-100.00,SSW,202,4.3,7.8,-999,0.00,,---,0.00,VWS V14.01,2013-01-06 05:25:00,
2013-01-06 00:26:00,31.0,-99.9,-100.00,West,277,3.0,7.8,-999,0.00,,---,0.00,VWS V14.01,2013-01-06 05:26:00,
2013-01-06 00:27:00,32.0,-99.9,-100.00,SW,229,8.1,8.1,-999,0.00,,---,0.00,VWS V14.01,2013-01-06 05:27:00,
2013-01-06 00:28:00,31.0,-99.9,-100.00,SSW,200,4.2,7.8,-999,0.00,,---,0.00,VWS V14.01,2013-01-06 05:28:00,
2013-01-06 00:29:00,31.0,-99.9,-100.00,SW,224,0.0,7.8,-999,0.00,,---,0.00,VWS V14.01,2013-01-06 05:29:00,
2013-01-06 00:30:00,31.0,-99.9,-100.00,SW,229,5.2,7.8,-999,0.00,,---,0.00,VWS V14.01,2013-01-06 05:30:00,
2013-01-06 00:31:00,31.3,-99.9,-100.00,WSW,246,0.0,7.8,-999,0.00,,---,0.00,VWS V14.01,2013-01-06 05:31:00,
2013-01-06 00:32:00,31.5,-99.9,-100.00,SSE,163,0.0,0.0,-999,0.00,,---,0.00,VWS V14.01,2013-01-06 05:32:00,
2013-01-06 00:33:00,31.7,-99.9,-100.00,SSE,163,0.0,0.0,-999,0.00,,---,0.00,VWS V14.01,2013-01-06 05:33:00,
2013-01-06 00:34:00,31.7,-99.9,-100.00,SW,215,0.0,7.8,-999,0.00,,---,0.00,VWS V14.01,2013-01-06 05:34:00,
2013-01-06 00:35:00,31.3,-99.9,-100.00,South,191,0.0,7.8,-999,0.00,,---,0.00,VWS V14.01,2013-01-06 05:35:00,
2013-01-06 00:36:00,31.5,-99.9,-100.00,WSW,245,0.0,7.8,-999,0.00,,---,0.00,VWS V14.01,2013-01-06 05:36:00,
2013-01-06 00:37:00,32.3,-99.9,-100.00,WSW,257,5.8,7.0,-999,0.00,,---,0.00,VWS V14.01,2013-01-06 05:37:00,
2013-01-06 00:38:00,32.0,-99.9,-100.00,WSW,248,5.7,5.7,-999,0.00,,---,0.00,VWS V14.01,2013-01-06 05:38:00,
2013-01-06 00:39:00,31.0,-99.9,-100.00,WSW,255,6.3,7.8,-999,0.00,,---,0.00,VWS V14.01,2013-01-06 05:39:00,
2013-01-06 00:40:00,31.0,-99.9,-100.00,WSW,243,8.8,8.8,-999,0.00,,---,0.00,VWS V14.01,2013-01-06 05:40:00,
2013-01-06 00:41:00,31.3,-99.9,-100.00,SW,222,8.1,8.8,-999,0.00,,---,0.00,VWS V14.01,2013-01-06 05:41:00,
2013-01-06 00:42:00,31.7,-99.9,-100.00,SW,219,0.0,8.3,-999,0.00,,---,0.00,VWS V14.01,2013-01-06 05:42:00,
2013-01-06 00:43:00,31.7,-99.9,-100.00,SW,215,6.7,6.7,-999,0.00,,---,0.00,VWS V14.01,2013-01-06 05:43:00,
2013-01-06 00:44:00,31.3,-99.9,-100.00,WSW,245,8.2,8.8,-999,0.00,,---,0.00,VWS V14.01,2013-01-06 05:44:00,
2013-01-06 00:45:00,31.5,-99.9,-100.00,SSW,204,0.0,8.8,-999,0.00,,---,0.00,VWS V14.01,2013-01-06 05:45:00,
2013-01-06 00:46:00,31.5,-99.9,-100.00,SSW,204,0.0,8.8,-999,0.00,,---,0.00,VWS V14.01,2013-01-06 05:46:00,
2013-01-06 00:47:00,31.7,-99.9,-100.00,SSW,210,6.3,9.1,-999,0.00,,---,0.00,VWS V14.01,2013-01-06 05:47:00,
2013-01-06 00:48:00,31.7,-99.9,-100.00,SSW,208,4.6,4.6,-999,0.00,,---,0.00,VWS V14.01,2013-01-06 05:48:00,
2013-01-06 00:49:00,31.3,-99.9,-100.00,SW,233,0.0,8.8,-999,0.00,,---,0.00,VWS V14.01,2013-01-06 05:49:00,
2013-01-06 00:50:00,31.3,-99.9,-100.00,WSW,245,5.5,8.9,-999,0.00,,---,0.00,VWS V14.01,2013-01-06 05:50:00,
2013-01-06 00:51:00,31.0,-99.9,-100.00,WSW,248,6.2,8.9,-999,0.00,,---,0.00,VWS V14.01,2013-01-06 05:51:00,
2013-01-06 00:52:00,31.7,-99.9,-100.00,South,179,0.0,3.4,-999,0.00,,---,0.00,VWS V14.01,2013-01-06 05:52:00,
2013-01-06 00:53:00,32.0,-99.9,-100.00,South,190,4.7,5.2,-999,0.00,,---,0.00,VWS V14.01,2013-01-06 05:53:00,
2013-01-06 00:54:00,32.3,-99.9,-100.00,SSW,207,6.9,6.9,-999,0.00,,---,0.00,VWS V14.01,2013-01-06 05:54:00,
2013-01-06 00:55:00,31.3,-99.9,-100.00,WSW,242,0.0,10.4,-999,0.00,,---,0.00,VWS V14.01,2013-01-06 05:55:00,
2013-01-06 00:56:00,31.3,-99.9,-100.00,WSW,240,5.0,10.4,-999,0.00,,---,0.00,VWS V14.01,2013-01-06 05:56:00,
2013-01-06 00:57:00,31.7,-99.9,-100.00,SW,222,0.0,6.0,-999,0.00,,---,0.00,VWS V14.01,2013-01-06 05:57:00,
2013-01-06 00:58:00,31.7,-99.9,-100.00,SW,222,0.0,6.0,-999,0.00,,---,0.00,VWS V14.01,2013-01-06 05:58:00,
2013-01-06 00:59:00,31.7,-99.9,-100.00,SW,236,6.5,7.1,-999,0.00,,---,0.00,VWS V14.01,2013-01-06 05:59:00,
2013-01-06 01:00:00,31.3,-99.9,-100.00,SW,228,0.0,10.4,-999,0.00,,---,0.00,VWS V14.01,2013-01-06 06:00:00,
2013-01-06 01:03:00,32.3,-99.9,-100.00,SSW,198,4.8,4.8,-999,0.00,,---,0.00,VWS V14.01,2013-01-06 06:03:00,
2013-01-06 01:04:00,31.7,-99.9,-100.00,SSW,197,6.6,7.0,-999,0.00,,---,0.00,VWS V14.01,2013-01-06 06:04:00,
2013-01-06 01:08:00,32.0,-99.9,-100.00,SW,214,3.4,5.0,-999,0.00,,---,0.00,VWS V14.01,2013-01-06 06:08:00,
2013-01-06 01:09:00,32.0,-99.9,-100.00,SW,236,4.9,5.7,-999,0.00,,---,0.00,VWS V14.01,2013-01-06 06:09:00,
2013-01-06 01:13:00,31.7,-99.9,-100.00,WSW,243,9.2,9.2,-999,0.00,,---,0.00,VWS V14.01,2013-01-06 06:13:00,
2013-01-06 01:14:00,32.0,-99.9,-100.00,SW,235,7.0,7.3,-999,0.00,,---,0.00,VWS V14.01,2013-01-06 06:14:00,
2013-01-06 01:18:00,32.3,-99.9,-100.00,SW,214,6.8,6.8,-999,0.00,,---,0.00,VWS V14.01,2013-01-06 06:18:00,
2013-01-06 01:19:00,32.0,-99.9,-100.00,SSW,200,5.4,7.0,-999,0.00,,---,0.00,VWS V14.01,2013-01-06 06:19:00,
2013-01-06 01:23:00,32.0,-99.9,-100.00,SW,231,7.3,7.3,-999,0.00,,---,0.00,VWS V14.01,2013-01-06 06:23:00,
2013-01-06 01:24:00,31.7,-99.9,-100.00,SSW,211,4.2,7.8,-999,0.00,,---,0.00,VWS V14.01,2013-01-06 06:24:00,
2013-01-06 01:28:00,32.3,-99.9,-100.00,SW,214,5.3,8.0,-999,0.00,,---,0.00,VWS V14.01,2013-01-06 06:28:00,
2013-01-06 01:29:00,32.5,-99.9,-100.00,WSW,238,6.8,6.8,-999,0.00,,---,0.00,VWS V14.01,2013-01-06 06:29:00,
2013-01-06 01:33:00,32.0,-99.9,-100.00,SW,221,9.5,9.5,-999,0.00,,---,0.00,VWS V14.01,2013-01-06 06:33:00,
2013-01-06 01:34:00,32.3,-99.9,-100.00,WSW,246,7.6,8.5,-999,0.00,,---,0.00,VWS V14.01,2013-01-06 06:34:00,
2013-01-06 01:35:00,32.5,-99.9,-100.00,SSW,202,6.1,6.1,-999,0.00,,---,0.00,VWS V14.01,2013-01-06 06:35:00,
2013-01-06 01:38:00,32.3,-99.9,-100.00,SW,233,7.2,10.3,-999,0.00,,---,0.00,VWS V14.01,2013-01-06 06:38:00,
2013-01-06 01:39:00,32.5,-99.9,-100.00,SSW,211,9.8,9.8,-999,0.00,,---,0.00,VWS V14.01,2013-01-06 06:39:00,
2013-01-06 01:40:00,32.5,-99.9,-100.00,SW,221,4.3,5.7,-999,0.00,,---,0.00,VWS V14.01,2013-01-06 06:40:00,
2013-01-06 01:43:00,32.0,-99.9,-100.00,SSW,211,6.6,9.8,-999,0.00,,---,0.00,VWS V14.01,2013-01-06 06:43:00,
2013-01-06 01:44:00,32.5,-99.9,-100.00,SSW,207,8.9,8.9,-999,0.00,,---,0.00,VWS V14.01,2013-01-06 06:44:00,
2013-01-06 01:45:00,32.5,-99.9,-100.00,SSW,201,5.8,7.2,-999,0.00,,---,0.00,VWS V14.01,2013-01-06 06:45:00,
2013-01-06 01:49:00,32.5,-99.9,-100.00,WSW,239,5.4,7.0,-999,0.00,,---,0.00,VWS V14.01,2013-01-06 06:49:00,
2013-01-06 01:50:00,32.5,-99.9,-100.00,SW,214,0.0,0.0,-999,0.00,,---,0.00,VWS V14.01,2013-01-06 06:50:00,
2013-01-06 01:54:00,32.3,-99.9,-100.00,SSW,195,6.5,8.3,-999,0.00,,---,0.00,VWS V14.01,2013-01-06 06:54:00,
2013-01-06 01:55:00,32.5,-99.9,-100.00,SW,222,4.7,7.5,-999,0.00,,---,0.00,VWS V14.01,2013-01-06 06:55:00,
2013-01-06 01:59:00,32.3,-99.9,-100.00,SW,235,0.0,6.4,-999,0.00,,---,0.00,VWS V14.01,2013-01-06 06:59:00,
2013-01-06 02:00:00,32.5,-99.9,-100.00,WSW,248,5.1,5.3,-999,0.00,,---,0.00,VWS V14.01,2013-01-06 07:00:00,
2013-01-06 02:04:00,32.3,-99.9,-100.00,SW,222,7.0,7.0,-999,0.00,,---,0.00,VWS V14.01,2013-01-06 07:04:00,
2013-01-06 02:05:00,32.3,-99.9,-100.00,SW,224,5.7,5.7,-999,0.00,,---,0.00,VWS V14.01,2013-01-06 07:05:00,
2013-01-06 02:09:00,32.3,-99.9,-100.00,SSW,201,5.2,5.6,-999,0.00,,---,0.00,VWS V14.01,2013-01-06 07:09:00,
2013-01-06 02:10:00,32.0,-99.9,-100.00,SW,235,5.0,5.7,-999,0.00,,---,0.00,VWS V14.01,2013-01-06 07:10:00,
2013-01-06 02:14:00,32.5,-99.9,-100.00,SSW,211,7.1,7.1,-999,0.00,,---,0.00,VWS V14.01,2013-01-06 07:14:00,
2013-01-06 02:15:00,32.5,-99.9,-100.00,South,188,7.2,7.2,-999,0.00,,---,0.00,VWS V14.01,2013-01-06 07:15:00,
2013-01-06 02:19:00,32.5,-99.9,-100.00,SW,218,5.1,6.6,-999,0.00,,---,0.00,VWS V14.01,2013-01-06 07:19:00,
2013-01-06 02:20:00,32.3,-99.9,-100.00,SW,218,9.1,9.1,-999,0.00,,---,0.00,VWS V14.01,2013-01-06 07:20:00,
2013-01-06 02:24:00,32.8,-99.9,-100.00,SW,217,5.5,7.6,-999,0.00,,---,0.00,VWS V14.01,2013-01-06 07:24:00,
2013-01-06 02:25:00,32.5,-99.9,-100.00,SW,224,7.8,7.8,-999,0.00,,---,0.00,VWS V14.01,2013-01-06 07:25:00,
2013-01-06 02:29:00,32.5,-99.9,-100.00,SSW,210,6.9,6.9,-999,0.00,,---,0.00,VWS V14.01,2013-01-06 07:29:00,
2013-01-06 02:30:00,32.5,-99.9,-100.00,SSW,210,6.9,6.9,-999,0.00,,---,0.00,VWS V14.01,2013-01-06 07:30:00,
2013-01-06 02:31:00,32.5,-99.9,-100.00,SSW,200,4.4,4.4,-999,0.00,,---,0.00,VWS V14.01,2013-01-06 07:31:00,
2013-01-06 02:34:00,32.8,-99.9,-100.00,South,191,4.8,7.0,-999,0.00,,---,0.00,VWS V14.01,2013-01-06 07:34:00,
2013-01-06 02:35:00,32.3,-99.9,-100.00,SSW,201,4.8,4.8,-999,0.00,,---,0.00,VWS V14.01,2013-01-06 07:35:00,
2013-01-06 02:36:00,32.5,-99.9,-100.00,South,191,7.3,8.0,-999,0.00,,---,0.00,VWS V14.01,2013-01-06 07:36:00,
2013-01-06 02:40:00,32.8,-99.9,-100.00,West,266,6.9,8.6,-999,0.00,,---,0.00,VWS V14.01,2013-01-06 07:40:00,
2013-01-06 02:41:00,33.0,-99.9,-100.00,SSW,201,6.6,7.2,-999,0.00,,---,0.00,VWS V14.01,2013-01-06 07:41:00,
2013-01-06 02:45:00,33.0,-99.9,-100.00,SW,225,4.8,6.5,-999,0.00,,---,0.00,VWS V14.01,2013-01-06 07:45:00,
2013-01-06 02:46:00,32.8,-99.9,-100.00,SSW,212,8.1,8.6,-999,0.00,,---,0.00,VWS V14.01,2013-01-06 07:46:00,
2013-01-06 02:47:00,33.3,-99.9,-100.00,SW,219,5.0,5.0,-999,0.00,,---,0.00,VWS V14.01,2013-01-06 07:47:00,
2013-01-06 02:50:00,32.8,-99.9,-100.00,WSW,242,4.3,5.2,-999,0.00,,---,0.00,VWS V14.01,2013-01-06 07:50:00,
2013-01-06 02:51:00,32.5,-99.9,-100.00,SW,229,4.5,4.7,-999,0.00,,---,0.00,VWS V14.01,2013-01-06 07:51:00,
2013-01-06 02:52:00,32.5,-99.9,-100.00,SW,235,0.0,4.5,-999,0.00,,---,0.00,VWS V14.01,2013-01-06 07:52:00,
2013-01-06 02:55:00,32.5,-99.9,-100.00,West,260,5.2,7.1,-999,0.00,,---,0.00,VWS V14.01,2013-01-06 07:55:00,
2013-01-06 02:56:00,32.5,-99.9,-100.00,SW,224,6.8,6.8,-999,0.00,,---,0.00,VWS V14.01,2013-01-06 07:56:00,
2013-01-06 02:57:00,32.5,-99.9,-100.00,SW,225,5.2,5.2,-999,0.00,,---,0.00,VWS V14.01,2013-01-06 07:57:00,
2013-01-06 03:00:00,32.5,-99.9,-100.00,SSE,167,4.5,6.0,-999,0.00,,---,0.00,VWS V14.01,2013-01-06 08:00:00,
2013-01-06 03:01:00,32.5,-99.9,-100.00,SW,215,5.9,7.4,-999,0.00,,---,0.00,VWS V14.01,2013-01-06 08:01:00,
2013-01-06 03:02:00,32.8,-99.9,-100.00,SW,215,5.7,5.7,-999,0.00,,---,0.00,VWS V14.01,2013-01-06 08:02:00,
2013-01-06 03:05:00,32.3,-99.9,-100.00,SW,231,7.8,7.8,-999,0.00,,---,0.00,VWS V14.01,2013-01-06 08:05:00,
2013-01-06 03:06:00,32.8,-99.9,-100.00,WSW,242,4.7,8.6,-999,0.00,,---,0.00,VWS V14.01,2013-01-06 08:06:00,
2013-01-06 03:07:00,32.5,-99.9,-100.00,SW,222,0.0,7.0,-999,0.00,,---,0.00,VWS V14.01,2013-01-06 08:07:00,
2013-01-06 03:10:00,32.5,-99.9,-100.00,WSW,250,6.2,6.2,-999,0.00,,---,0.00,VWS V14.01,2013-01-06 08:10:00,
2013-01-06 03:11:00,32.8,-99.9,-100.00,SSW,212,5.2,6.8,-999,0.00,,---,0.00,VWS V14.01,2013-01-06 08:11:00,
2013-01-06 03:12:00,32.5,-99.9,-100.00,SSW,202,4.2,8.3,-999,0.00,,---,0.00,VWS V14.01,2013-01-06 08:12:00,
2013-01-06 03:15:00,32.5,-99.9,-100.00,SW,233,0.0,0.0,-999,0.00,,---,0.00,VWS V14.01,2013-01-06 08:15:00,
2013-01-06 03:16:00,32.8,-99.9,-100.00,SW,233,0.0,0.0,-999,0.00,,---,0.00,VWS V14.01,2013-01-06 08:16:00,
2013-01-06 03:17:00,32.8,-99.9,-100.00,SW,232,6.7,7.4,-999,0.00,,---,0.00,VWS V14.01,2013-01-06 08:17:00,
2013-01-06 03:20:00,32.8,-99.9,-100.00,SSW,207,5.1,6.8,-999,0.00,,---,0.00,VWS V14.01,2013-01-06 08:20:00,
2013-01-06 03:21:00,33.0,-99.9,-100.00,SW,224,6.3,7.9,-999,0.00,,---,0.00,VWS V14.01,2013-01-06 08:21:00,
2013-01-06 03:22:00,33.0,-99.9,-100.00,SSW,208,4.8,5.3,-999,0.00,,---,0.00,VWS V14.01,2013-01-06 08:22:00,
2013-01-06 03:25:00,32.5,-99.9,-100.00,SW,214,0.0,0.0,-999,0.00,,---,0.00,VWS V14.01,2013-01-06 08:25:00,
2013-01-06 03:26:00,32.5,-99.9,-100.00,SSW,205,0.0,7.3,-999,0.00,,---,0.00,VWS V14.01,2013-01-06 08:26:00,
2013-01-06 03:27:00,32.5,-99.9,-100.00,SSW,208,5.1,7.8,-999,0.00,,---,0.00,VWS V14.01,2013-01-06 08:27:00,
2013-01-06 03:30:00,32.5,-99.9,-100.00,SSW,208,0.0,4.5,-999,0.00,,---,0.00,VWS V14.01,2013-01-06 08:30:00,
2013-01-06 03:31:00,32.5,-99.9,-100.00,WSW,239,5.4,7.0,-999,0.00,,---,0.00,VWS V14.01,2013-01-06 08:31:00,
2013-01-06 03:33:00,32.5,-99.9,-100.00,SSW,211,6.4,6.5,-999,0.00,,---,0.00,VWS V14.01,2013-01-06 08:33:00,
2013-01-06 03:35:00,32.5,-99.9,-100.00,SSW,204,5.0,5.2,-999,0.00,,---,0.00,VWS V14.01,2013-01-06 08:35:00,
2013-01-06 03:36:00,32.0,-99.9,-100.00,SW,217,4.5,6.7,-999,0.00,,---,0.00,VWS V14.01,2013-01-06 08:36:00,
2013-01-06 03:38:00,32.0,-99.9,-100.00,SSW,201,8.1,8.1,-999,0.00,,---,0.00,VWS V14.01,2013-01-06 08:38:00,
2013-01-06 03:40:00,31.7,-99.9,-100.00,WSW,240,4.4,7.2,-999,0.00,,---,0.00,VWS V14.01,2013-01-06 08:40:00,
2013-01-06 03:41:00,31.7,-99.9,-100.00,SW,226,4.7,6.7,-999,0.00,,---,0.00,VWS V14.01,2013-01-06 08:41:00,
2013-01-06 03:43:00,31.7,-99.9,-100.00,SSW,205,2.8,5.3,-999,0.00,,---,0.00,VWS V14.01,2013-01-06 08:43:00,
2013-01-06 03:45:00,32.0,-99.9,-100.00,SW,217,4.9,8.1,-999,0.00,,---,0.00,VWS V14.01,2013-01-06 08:45:00,
2013-01-06 03:46:00,32.0,-99.9,-100.00,SW,221,7.3,7.3,-999,0.00,,---,0.00,VWS V14.01,2013-01-06 08:46:00,
2013-01-06 03:47:00,31.7,-99.9,-100.00,SW,218,9.1,9.1,-999,0.00,,---,0.00,VWS V14.01,2013-01-06 08:47:00,
2013-01-06 03:48:00,31.7,-99.9,-100.00,WSW,249,8.9,8.9,-999,0.00,,---,0.00,VWS V14.01,2013-01-06 08:48:00,
2013-01-06 03:50:00,32.0,-99.9,-100.00,SSW,212,0.0,7.5,-999,0.00,,---,0.00,VWS V14.01,2013-01-06 08:50:00,
2013-01-06 03:51:00,31.7,-99.9,-100.00,SSW,212,0.0,0.0,-999,0.00,,---,0.00,VWS V14.01,2013-01-06 08:51:00,
2013-01-06 03:52:00,32.0,-99.9,-100.00,SW,218,4.8,6.8,-999,0.00,,---,0.00,VWS V14.01,2013-01-06 08:52:00,
2013-01-06 03:53:00,31.7,-99.9,-100.00,WSW,256,4.8,5.3,-999,0.00,,---,0.00,VWS V14.01,2013-01-06 08:53:00,
2013-01-06 03:55:00,31.7,-99.9,-100.00,SW,215,6.8,8.2,-999,0.00,,---,0.00,VWS V14.01,2013-01-06 08:55:00,
2013-01-06 03:56:00,32.3,-99.9,-100.00,SSW,207,6.5,7.1,-999,0.00,,---,0.00,VWS V14.01,2013-01-06 08:56:00,
2013-01-06 03:57:00,32.0,-99.9,-100.00,SW,219,4.5,8.9,-999,0.00,,---,0.00,VWS V14.01,2013-01-06 08:57:00,
2013-01-06 03:58:00,31.7,-99.9,-100.00,SW,219,0.0,0.0,-999,0.00,,---,0.00,VWS V14.01,2013-01-06 08:58:00,
2013-01-06 04:01:00,31.3,-99.9,-100.00,WSW,256,0.0,5.2,-999,0.00,,---,0.00,VWS V14.01,2013-01-06 09:01:00,
2013-01-06 04:02:00,31.5,-99.9,-100.00,SSW,212,4.5,5.3,-999,0.00,,---,0.00,VWS V14.01,2013-01-06 09:02:00,
2013-01-06 04:03:00,31.5,-99.9,-100.00,SSW,202,4.2,4.3,-999,0.00,,---,0.00,VWS V14.01,2013-01-06 09:03:00,
2013-01-06 04:06:00,31.5,-99.9,-100.00,SW,231,6.0,6.0,-999,0.00,,---,0.00,VWS V14.01,2013-01-06 09:06:00,
2013-01-06 04:07:00,31.7,-99.9,-100.00,SW,217,5.9,6.4,-999,0.00,,---,0.00,VWS V14.01,2013-01-06 09:07:00,
2013-01-06 04:08:00,31.5,-99.9,-100.00,WSW,245,5.2,7.6,-999,0.00,,---,0.00,VWS V14.01,2013-01-06 09:08:00,
2013-01-06 04:11:00,31.5,-99.9,-100.00,SW,222,6.3,7.4,-999,0.00,,---,0.00,VWS V14.01,2013-01-06 09:11:00,
2013-01-06 04:13:00,31.5,-99.9,-100.00,SSW,197,0.0,0.0,-999,0.00,,---,0.00,VWS V14.01,2013-01-06 09:13:00,
2013-01-06 04:16:00,31.7,-99.9,-100.00,SW,214,0.0,0.0,-999,0.00,,---,0.00,VWS V14.01,2013-01-06 09:16:00,
2013-01-06 04:18:00,31.5,-99.9,-100.00,SW,214,0.0,0.0,-999,0.00,,---,0.00,VWS V14.01,2013-01-06 09:18:00,
2013-01-06 04:21:00,31.7,-99.9,-100.00,SSW,204,5.0,6.5,-999,0.00,,---,0.00,VWS V14.01,2013-01-06 09:21:00,
2013-01-06 04:23:00,31.5,-99.9,-100.00,SSW,194,4.6,5.5,-999,0.00,,---,0.00,VWS V14.01,2013-01-06 09:23:00,
2013-01-06 04:26:00,31.5,-99.9,-100.00,SW,224,4.8,4.8,-999,0.00,,---,0.00,VWS V14.01,2013-01-06 09:26:00,
2013-01-06 04:28:00,31.7,-99.9,-100.00,SW,236,4.2,5.0,-999,0.00,,---,0.00,VWS V14.01,2013-01-06 09:28:00,
2013-01-06 04:31:00,31.0,-99.9,-100.00,SW,224,5.2,5.9,-999,0.00,,---,0.00,VWS V14.01,2013-01-06 09:31:00,
2013-01-06 04:33:00,31.0,-99.9,-100.00,SSE,148,0.0,5.0,-999,0.00,,---,0.00,VWS V14.01,2013-01-06 09:33:00,
2013-01-06 04:36:00,31.0,-99.9,-100.00,SW,219,5.2,6.6,-999,0.00,,---,0.00,VWS V14.01,2013-01-06 09:36:00,
2013-01-06 04:38:00,31.3,-99.9,-100.00,SSW,210,3.5,3.5,-999,0.00,,---,0.00,VWS V14.01,2013-01-06 09:38:00,
2013-01-06 04:41:00,31.0,-99.9,-100.00,SW,218,3.1,4.7,-999,0.00,,---,0.00,VWS V14.01,2013-01-06 09:41:00,
2013-01-06 04:43:00,31.0,-99.9,-100.00,SW,226,5.3,5.3,-999,0.00,,---,0.00,VWS V14.01,2013-01-06 09:43:00,
2013-01-06 04:46:00,31.0,-99.9,-100.00,SSW,212,4.6,6.8,-999,0.00,,---,0.00,VWS V14.01,2013-01-06 09:46:00,
2013-01-06 04:48:00,31.3,-99.9,-100.00,SW,236,6.0,6.0,-999,0.00,,---,0.00,VWS V14.01,2013-01-06 09:48:00,
2013-01-06 04:49:00,31.5,-99.9,-100.00,SSW,205,5.3,6.0,-999,0.00,,---,0.00,VWS V14.01,2013-01-06 09:49:00,
2013-01-06 04:51:00,31.5,-99.9,-100.00,SSW,200,3.4,6.8,-999,0.00,,---,0.00,VWS V14.01,2013-01-06 09:51:00,
2013-01-06 04:54:00,31.7,-99.9,-100.00,SW,215,7.3,8.1,-999,0.00,,---,0.00,VWS V14.01,2013-01-06 09:54:00,
2013-01-06 04:56:00,32.3,-99.9,-100.00,SW,226,5.3,6.8,-999,0.00,,---,0.00,VWS V14.01,2013-01-06 09:56:00,
2013-01-06 04:59:00,31.7,-99.9,-100.00,SW,218,5.4,8.0,-999,0.00,,---,0.00,VWS V14.01,2013-01-06 09:59:00,
2013-01-06 05:01:00,31.7,-99.9,-100.00,SSW,207,3.4,8.3,-999,0.00,,---,0.00,VWS V14.01,2013-01-06 10:01:00,
2013-01-06 05:04:00,32.3,-99.9,-100.00,SSW,200,7.3,8.3,-999,0.00,,---,0.00,VWS V14.01,2013-01-06 10:04:00,
2013-01-06 05:06:00,31.7,-99.9,-100.00,SSW,211,7.5,9.6,-999,0.00,,---,0.00,VWS V14.01,2013-01-06 10:06:00,
2013-01-06 05:09:00,32.0,-99.9,-100.00,SW,215,5.6,7.5,-999,0.00,,---,0.00,VWS V14.01,2013-01-06 10:09:00,
2013-01-06 05:11:00,31.7,-99.9,-100.00,SW,225,7.5,9.5,-999,0.00,,---,0.00,VWS V14.01,2013-01-06 10:11:00,
2013-01-06 05:12:00,31.7,-99.9,-100.00,SW,214,7.6,7.6,-999,0.00,,---,0.00,VWS V14.01,2013-01-06 10:12:00,
2013-01-06 05:14:00,32.0,-99.9,-100.00,SSW,211,4.8,6.5,-999,0.00,,---,0.00,VWS V14.01,2013-01-06 10:14:00,
2013-01-06 05:16:00,32.0,-99.9,-100.00,SSE,158,0.0,2.5,-999,0.00,,---,0.00,VWS V14.01,2013-01-06 10:16:00,
2013-01-06 05:17:00,31.7,-99.9,-100.00,SSE,158,0.0,0.0,-999,0.00,,---,0.00,VWS V14.01,2013-01-06 10:17:00,
2013-01-06 05:19:00,32.5,-99.9,-100.00,SW,226,7.8,9.3,-999,0.00,,---,0.00,VWS V14.01,2013-01-06 10:19:00,
2013-01-06 05:22:00,32.0,-99.9,-100.00,SW,233,4.7,5.4,-999,0.00,,---,0.00,VWS V14.01,2013-01-06 10:22:00,
2013-01-06 05:24:00,31.7,-99.9,-100.00,SSW,198,0.0,6.5,-999,0.00,,---,0.00,VWS V14.01,2013-01-06 10:24:00,
2013-01-06 05:27:00,32.0,-99.9,-100.00,WSW,242,0.0,0.0,-999,0.00,,---,0.00,VWS V14.01,2013-01-06 10:27:00,
2013-01-06 05:29:00,31.7,-99.9,-100.00,SW,224,0.0,6.9,-999,0.00,,---,0.00,VWS V14.01,2013-01-06 10:29:00,
2013-01-06 05:32:00,32.5,-99.9,-100.00,SSW,208,10.2,10.2,-999,0.00,,---,0.00,VWS V14.01,2013-01-06 10:32:00,
2013-01-06 05:34:00,32.5,-99.9,-100.00,SSW,208,7.9,11.5,-999,0.00,,---,0.00,VWS V14.01,2013-01-06 10:34:00,
2013-01-06 05:35:00,32.0,-99.9,-100.00,SSW,205,5.2,7.9,-999,0.00,,---,0.00,VWS V14.01,2013-01-06 10:35:00,
2013-01-06 05:37:00,32.5,-99.9,-100.00,WSW,243,7.5,9.4,-999,0.00,,---,0.00,VWS V14.01,2013-01-06 10:37:00,
2013-01-06 05:40:00,32.5,-99.9,-100.00,SW,215,7.5,9.4,-999,0.00,,---,0.00,VWS V14.01,2013-01-06 10:40:00,
2013-01-06 05:42:00,32.5,-99.9,-100.00,SSW,201,5.5,6.0,-999,0.00,,---,0.00,VWS V14.01,2013-01-06 10:42:00,
2013-01-06 05:45:00,32.0,-99.9,-100.00,South,190,4.8,7.0,-999,0.00,,---,0.00,VWS V14.01,2013-01-06 10:45:00,
2013-01-06 05:47:00,32.3,-99.9,-100.00,WSW,256,8.0,8.1,-999,0.00,,---,0.00,VWS V14.01,2013-01-06 10:47:00,
2013-01-06 05:50:00,32.3,-99.9,-100.00,SW,233,5.9,6.5,-999,0.00,,---,0.00,VWS V14.01,2013-01-06 10:50:00,
2013-01-06 05:51:00,32.3,-99.9,-100.00,South,188,7.3,7.3,-999,0.00,,---,0.00,VWS V14.01,2013-01-06 10:51:00,
2013-01-06 05:52:00,32.3,-99.9,-100.00,SSW,201,6.3,8.6,-999,0.00,,---,0.00,VWS V14.01,2013-01-06 10:52:00,
2013-01-06 05:55:00,32.5,-99.9,-100.00,SSW,198,7.7,9.4,-999,0.00,,---,0.00,VWS V14.01,2013-01-06 10:55:00,
2013-01-06 05:56:00,32.3,-99.9,-100.00,SW,235,5.8,6.0,-999,0.00,,---,0.00,VWS V14.01,2013-01-06 10:56:00,
2013-01-06 05:57:00,32.5,-99.9,-100.00,WSW,250,6.2,7.2,-999,0.00,,---,0.00,VWS V14.01,2013-01-06 10:57:00,
2013-01-06 06:00:00,32.0,-99.9,-100.00,SSW,198,8.1,10.3,-999,0.00,,---,0.00,VWS V14.01,2013-01-06 11:00:00,
2013-01-06 06:01:00,31.7,-99.9,-100.00,SSW,202,7.6,7.6,-999,0.00,,---,0.00,VWS V14.01,2013-01-06 11:01:00,
2013-01-06 06:02:00,31.7,-99.9,-100.00,SW,224,6.6,6.8,-999,0.00,,---,0.00,VWS V14.01,2013-01-06 11:02:00,
2013-01-06 06:05:00,32.3,-99.9,-100.00,SW,217,7.5,7.6,-999,0.00,,---,0.00,VWS V14.01,2013-01-06 11:05:00,
2013-01-06 06:06:00,32.3,-99.9,-100.00,SSW,212,6.7,7.9,-999,0.00,,---,0.00,VWS V14.01,2013-01-06 11:06:00,
2013-01-06 06:07:00,32.0,-99.9,-100.00,SSW,194,5.8,9.8,-999,0.00,,---,0.00,VWS V14.01,2013-01-06 11:07:00,
2013-01-06 06:10:00,32.0,-99.9,-100.00,SW,225,6.6,6.6,-999,0.00,,---,0.00,VWS V14.01,2013-01-06 11:10:00,
2013-01-06 06:11:00,32.5,-99.9,-100.00,SW,228,4.4,8.0,-999,0.00,,---,0.00,VWS V14.01,2013-01-06 11:11:00,
2013-01-06 06:13:00,32.3,-99.9,-100.00,SSW,208,8.4,8.6,-999,0.00,,---,0.00,VWS V14.01,2013-01-06 11:13:00,
2013-01-06 06:15:00,32.5,-99.9,-100.00,SW,235,6.0,8.3,-999,0.00,,---,0.00,VWS V14.01,2013-01-06 11:15:00,
2013-01-06 06:16:00,32.5,-99.9,-100.00,SW,217,7.6,7.6,-999,0.00,,---,0.00,VWS V14.01,2013-01-06 11:16:00,
2013-01-06 06:18:00,32.3,-99.9,-100.00,SSW,205,0.0,5.1,-999,0.00,,---,0.00,VWS V14.01,2013-01-06 11:18:00,
2013-01-06 06:20:00,32.0,-99.9,-100.00,WSW,246,6.6,6.6,-999,0.00,,---,0.00,VWS V14.01,2013-01-06 11:20:00,
2013-01-06 06:21:00,32.3,-99.9,-100.00,SSW,198,9.3,9.3,-999,0.00,,---,0.00,VWS V14.01,2013-01-06 11:21:00,
2013-01-06 06:23:00,32.3,-99.9,-100.00,SSW,193,7.6,8.3,-999,0.00,,---,0.00,VWS V14.01,2013-01-06 11:23:00,
2013-01-06 06:25:00,32.3,-99.9,-100.00,SSW,194,5.9,8.7,-999,0.00,,---,0.00,VWS V14.01,2013-01-06 11:25:00,
2013-01-06 06:26:00,32.3,-99.9,-100.00,SSW,208,4.2,5.7,-999,0.00,,---,0.00,VWS V14.01,2013-01-06 11:26:00,
2013-01-06 06:28:00,31.7,-99.9,-100.00,SW,226,4.3,4.3,-999,0.00,,---,0.00,VWS V14.01,2013-01-06 11:28:00,
2013-01-06 06:30:00,32.3,-99.9,-100.00,ESE,120,0.0,0.0,-999,0.00,,---,0.00,VWS V14.01,2013-01-06 11:30:00,
2013-01-06 06:31:00,31.7,-99.9,-100.00,ESE,120,0.0,0.0,-999,0.00,,---,0.00,VWS V14.01,2013-01-06 11:31:00,
2013-01-06 06:33:00,32.3,-99.9,-100.00,SW,219,5.2,8.1,-999,0.00,,---,0.00,VWS V14.01,2013-01-06 11:33:00,
2013-01-06 06:35:00,32.0,-99.9,-100.00,South,172,4.6,4.6,-999,0.00,,---,0.00,VWS V14.01,2013-01-06 11:35:00,
2013-01-06 06:36:00,32.0,-99.9,-100.00,SSW,210,5.3,7.8,-999,0.00,,---,0.00,VWS V14.01,2013-01-06 11:36:00,
2013-01-06 06:38:00,31.7,-99.9,-100.00,SW,214,6.5,6.5,-999,0.00,,---,0.00,VWS V14.01,2013-01-06 11:38:00,
2013-01-06 06:41:00,32.5,-99.9,-100.00,SW,218,10.0,10.7,-999,0.00,,---,0.00,VWS V14.01,2013-01-06 11:41:00,
2013-01-06 06:43:00,32.3,-99.9,-100.00,SW,214,6.3,6.3,-999,0.00,,---,0.00,VWS V14.01,2013-01-06 11:43:00,
2013-01-06 06:46:00,31.5,-99.9,-100.00,SW,225,5.5,6.0,-999,0.00,,---,0.00,VWS V14.01,2013-01-06 11:46:00,
2013-01-06 06:47:00,32.3,-99.9,-100.00,South,176,6.0,8.8,-999,0.00,,---,0.00,VWS V14.01,2013-01-06 11:47:00,
2013-01-06 06:48:00,32.0,-99.9,-100.00,SSW,195,3.5,5.2,-999,0.00,,---,0.00,VWS V14.01,2013-01-06 11:48:00,
2013-01-06 06:51:00,32.3,-99.9,-100.00,SW,221,0.0,7.2,-999,0.00,,---,0.00,VWS V14.01,2013-01-06 11:51:00,
2013-01-06 06:52:00,31.7,-99.9,-100.00,South,191,5.0,5.5,-999,0.00,,---,0.00,VWS V14.01,2013-01-06 11:52:00,
2013-01-06 06:53:00,31.5,-99.9,-100.00,South,181,0.0,0.0,-999,0.00,,---,0.00,VWS V14.01,2013-01-06 11:53:00,
2013-01-06 06:56:00,31.7,-99.9,-100.00,SSW,211,5.9,7.6,-999,0.00,,---,0.00,VWS V14.01,2013-01-06 11:56:00,
2013-01-06 06:57:00,32.3,-99.9,-100.00,SW,218,6.6,7.8,-999,0.00,,---,0.00,VWS V14.01,2013-01-06 11:57:00,
2013-01-06 06:58:00,31.7,-99.9,-100.00,SW,218,9.0,9.0,-999,0.00,,---,0.00,VWS V14.01,2013-01-06 11:58:00,
2013-01-06 06:59:00,31.5,-99.9,-100.00,SSW,212,5.8,8.0,-999,0.00,,---,0.00,VWS V14.01,2013-01-06 11:59:00,
2013-01-06 07:01:00,32.1,-99.9,-100.00,SSW,198,5.8,6.6,-999,0.00,,---,0.00,VWS V14.01,2013-01-06 12:01:00,
2013-01-06 07:02:00,31.7,-99.9,-100.00,SSW,193,3.3,5.8,-999,0.00,,---,0.00,VWS V14.01,2013-01-06 12:02:00,
2013-01-06 07:03:00,32.3,-99.9,-100.00,SSW,202,4.5,7.1,-999,0.00,,---,0.00,VWS V14.01,2013-01-06 12:03:00,
2013-01-06 07:04:00,32.1,-99.9,-100.00,South,191,5.4,5.4,-999,0.00,,---,0.00,VWS V14.01,2013-01-06 12:04:00,
2013-01-06 07:06:00,32.0,-99.9,-100.00,SW,214,4.3,5.5,-999,0.00,,---,0.00,VWS V14.01,2013-01-06 12:06:00,
2013-01-06 07:07:00,32.2,-99.9,-100.00,South,179,4.7,4.7,-999,0.00,,---,0.00,VWS V14.01,2013-01-06 12:07:00,
2013-01-06 07:09:00,32.2,-99.9,-100.00,SSW,197,4.8,4.8,-999,0.00,,---,0.00,VWS V14.01,2013-01-06 12:09:00,
2013-01-06 07:11:00,32.0,-99.9,-100.00,SSW,202,4.6,5.3,-999,0.00,,---,0.00,VWS V14.01,2013-01-06 12:11:00,
2013-01-06 07:12:00,32.2,-99.9,-100.00,SSW,201,2.6,4.6,-999,0.00,,---,0.00,VWS V14.01,2013-01-06 12:12:00,
2013-01-06 07:14:00,31.7,-99.9,-100.00,South,187,6.6,9.9,-999,0.00,,---,0.00,VWS V14.01,2013-01-06 12:14:00,
2013-01-06 07:16:00,32.2,-99.9,-100.00,SSW,193,7.5,7.6,-999,0.00,,---,0.00,VWS V14.01,2013-01-06 12:16:00,
2013-01-06 07:17:00,32.0,-99.9,-100.00,SSW,198,3.5,7.5,-999,0.00,,---,0.00,VWS V14.01,2013-01-06 12:17:00,
2013-01-06 07:19:00,32.2,-99.9,-100.00,South,188,4.6,4.6,-999,0.00,,---,0.00,VWS V14.01,2013-01-06 12:19:00,
2013-01-06 07:22:00,32.5,-99.9,-100.00,South,180,6.6,6.6,-999,0.00,,---,0.00,VWS V14.01,2013-01-06 12:22:00,
2013-01-06 07:24:00,32.5,-99.9,-100.00,South,188,8.9,8.9,-999,0.00,,---,0.00,VWS V14.01,2013-01-06 12:24:00,
2013-01-06 07:27:00,32.2,-99.9,-100.00,South,179,0.0,0.0,-999,0.00,,---,0.00,VWS V14.01,2013-01-06 12:27:00,
2013-01-06 07:29:00,32.0,-99.9,-100.00,South,190,5.8,7.0,-999,0.00,,---,0.00,VWS V14.01,2013-01-06 12:29:00,
2013-01-06 07:30:00,32.2,-99.9,-100.00,South,190,5.8,6.3,-999,0.00,,---,0.00,VWS V14.01,2013-01-06 12:30:00,
2013-01-06 07:32:00,32.2,-99.9,-100.00,South,186,3.5,5.0,-999,0.00,,---,0.00,VWS V14.01,2013-01-06 12:32:00,
2013-01-06 07:34:00,32.2,-99.9,-100.00,SW,224,2.9,7.3,-999,0.00,,---,0.00,VWS V14.01,2013-01-06 12:34:00,
2013-01-06 07:35:00,32.2,-99.9,-100.00,SW,232,7.8,8.5,-999,0.00,,---,0.00,VWS V14.01,2013-01-06 12:35:00,
2013-01-06 07:37:00,32.2,-99.9,-100.00,SSW,202,7.7,7.7,-999,0.00,,---,0.00,VWS V14.01,2013-01-06 12:37:00,
2013-01-06 07:39:00,32.2,-99.9,-100.00,SSW,198,5.4,7.5,-999,0.00,,---,0.00,VWS V14.01,2013-01-06 12:39:00,
2013-01-06 07:40:00,32.2,-99.9,-100.00,SW,236,3.4,5.8,-999,0.00,,---,0.00,VWS V14.01,2013-01-06 12:40:00,
2013-01-06 07:42:00,32.2,-99.9,-100.00,SSW,204,8.0,10.6,-999,0.00,,---,0.01,VWS V14.01,2013-01-06 12:42:00,
2013-01-06 07:45:00,32.5,-99.9,-100.00,SSW,208,6.2,6.2,-999,0.00,,---,0.01,VWS V14.01,2013-01-06 12:45:00,
2013-01-06 07:47:00,31.7,-99.9,-100.00,SSW,208,5.8,7.7,-999,0.00,,---,0.01,VWS V14.01,2013-01-06 12:47:00,
2013-01-06 07:48:00,32.0,-99.9,-100.00,SSW,201,5.9,5.9,-999,0.00,,---,0.01,VWS V14.01,2013-01-06 12:48:00,
2013-01-06 07:50:00,32.2,-99.9,-100.00,SSW,211,5.3,5.6,-999,0.00,,---,0.01,VWS V14.01,2013-01-06 12:50:00,
2013-01-06 07:52:00,32.5,-99.9,-100.00,SW,224,9.7,9.7,-999,0.00,,---,0.01,VWS V14.01,2013-01-06 12:52:00,
2013-01-06 07:53:00,32.2,-99.9,-100.00,SSW,201,5.9,9.7,-999,0.00,,---,0.01,VWS V14.01,2013-01-06 12:53:00,
2013-01-06 07:55:00,32.2,-99.9,-100.00,SSW,193,7.3,7.3,-999,0.00,,---,0.01,VWS V14.01,2013-01-06 12:55:00,
2013-01-06 07:58:00,32.5,-99.9,-100.00,South,191,7.1,7.5,-999,0.00,,---,0.01,VWS V14.01,2013-01-06 12:58:00,
2013-01-06 08:00:00,32.2,-99.9,-100.00,SSW,193,5.7,5.7,-999,0.00,,---,0.01,VWS V14.01,2013-01-06 13:00:00,
2013-01-06 08:03:00,32.2,-99.9,-100.00,SE,146,4.5,7.8,-999,0.00,,---,0.01,VWS V14.01,2013-01-06 13:03:00,
2013-01-06 08:05:00,32.7,-99.9,-100.00,South,183,5.2,5.7,-999,0.00,,---,0.01,VWS V14.01,2013-01-06 13:05:00,
2013-01-06 08:08:00,32.7,-99.9,-100.00,WSW,238,6.0,9.9,-999,0.00,,---,0.01,VWS V14.01,2013-01-06 13:08:00,
2013-01-06 08:10:00,32.7,-99.9,-100.00,South,191,5.7,6.6,-999,0.00,,---,0.01,VWS V14.01,2013-01-06 13:10:00,
2013-01-06 08:13:00,33.0,-99.9,-100.00,South,190,6.5,7.2,-999,0.00,,---,0.01,VWS V14.01,2013-01-06 13:13:00,
2013-01-06 08:15:00,32.7,-99.9,-100.00,SSW,193,4.5,7.3,-999,0.00,,---,0.01,VWS V14.01,2013-01-06 13:15:00,
2013-01-06 08:18:00,32.2,-99.9,-100.00,SW,215,7.8,7.9,-999,0.00,,---,0.01,VWS V14.01,2013-01-06 13:18:00,
2013-01-06 08:20:00,33.0,-99.9,-100.00,SW,224,7.6,8.1,-999,0.00,,---,0.01,VWS V14.01,2013-01-06 13:20:00,
2013-01-06 08:23:00,33.0,-99.9,-100.00,SW,217,8.7,9.6,-999,0.00,,---,0.01,VWS V14.01,2013-01-06 13:23:00,
2013-01-06 08:25:00,32.7,-99.9,-100.00,SW,218,6.8,7.8,-999,0.00,,---,0.01,VWS V14.01,2013-01-06 13:25:00,
2013-01-06 08:28:00,32.2,-99.9,-100.00,South,190,3.3,9.1,-999,0.00,,---,0.01,VWS V14.01,2013-01-06 13:28:00,
2013-01-06 08:30:00,32.2,-99.9,-100.00,South,190,6.0,6.7,-999,0.00,,---,0.01,VWS V14.01,2013-01-06 13:30:00,
2013-01-06 08:33:00,32.5,-99.9,-100.00,SW,222,10.5,11.9,-999,0.00,,---,0.01,VWS V14.01,2013-01-06 13:33:00,
2013-01-06 08:34:00,32.7,-99.9,-100.00,SSW,200,11.8,11.8,-999,0.00,,---,0.01,VWS V14.01,2013-01-06 13:34:00,
2013-01-06 08:35:00,32.7,-99.9,-100.00,SSW,198,4.7,9.3,-999,0.00,,---,0.01,VWS V14.01,2013-01-06 13:35:00,
2013-01-06 08:38:00,32.7,-99.9,-100.00,South,190,5.2,7.4,-999,0.00,,---,0.01,VWS V14.01,2013-01-06 13:38:00,
2013-01-06 08:39:00,32.2,-99.9,-100.00,SW,225,5.3,5.3,-999,0.00,,---,0.01,VWS V14.01,2013-01-06 13:39:00,
2013-01-06 08:40:00,32.7,-99.9,-100.00,SW,217,7.8,7.8,-999,0.00,,---,0.01,VWS V14.01,2013-01-06 13:40:00,
2013-01-06 08:44:00,32.5,-99.9,-100.00,South,176,5.2,7.1,-999,0.00,,---,0.01,VWS V14.01,2013-01-06 13:44:00,
2013-01-06 08:45:00,32.7,-99.9,-100.00,South,191,4.5,6.7,-999,0.00,,---,0.01,VWS V14.01,2013-01-06 13:45:00,
2013-01-06 08:46:00,32.5,-99.9,-100.00,SSW,198,5.2,5.2,-999,0.00,,---,0.01,VWS V14.01,2013-01-06 13:46:00,
2013-01-06 08:49:00,32.2,-99.9,-100.00,SSW,195,5.6,6.5,-999,0.00,,---,0.01,VWS V14.01,2013-01-06 13:49:00,
2013-01-06 08:50:00,32.2,-99.9,-100.00,SSW,207,5.6,5.6,-999,0.00,,---,0.01,VWS V14.01,2013-01-06 13:50:00,
2013-01-06 08:51:00,32.2,-99.9,-100.00,South,181,7.0,7.0,-999,0.00,,---,0.01,VWS V14.01,2013-01-06 13:51:00,
2013-01-06 08:54:00,32.2,-99.9,-100.00,SSW,212,8.7,9.3,-999,0.00,,---,0.01,VWS V14.01,2013-01-06 13:54:00,
2013-01-06 08:56:00,32.5,-99.9,-100.00,SSE,165,5.3,6.2,-999,0.00,,---,0.01,VWS V14.01,2013-01-06 13:56:00,
2013-01-06 08:59:00,33.0,-99.9,-100.00,SSW,194,4.5,6.3,-999,0.00,,---,0.01,VWS V14.01,2013-01-06 13:59:00,
2013-01-06 09:01:00,33.0,-99.9,-100.00,SSW,211,4.8,4.8,-999,0.00,,---,0.01,VWS V14.01,2013-01-06 14:01:00,
2013-01-06 09:04:00,33.0,-99.9,-100.00,South,190,4.2,6.3,-999,0.00,,---,0.01,VWS V14.01,2013-01-06 14:04:00,
2013-01-06 09:06:00,33.0,-99.9,-100.00,South,186,4.8,6.8,-999,0.00,,---,0.01,VWS V14.01,2013-01-06 14:06:00,
2013-01-06 09:09:00,32.7,-99.9,-100.00,South,187,11.9,11.9,-999,0.00,,---,0.01,VWS V14.01,2013-01-06 14:09:00,
2013-01-06 09:11:00,33.2,-99.9,-100.00,SW,214,11.7,11.7,-999,0.00,,---,0.01,VWS V14.01,2013-01-06 14:11:00,
2013-01-06 09:12:00,33.2,-99.9,-100.00,SW,224,9.1,11.7,-999,0.00,,---,0.01,VWS V14.01,2013-01-06 14:12:00,
2013-01-06 09:14:00,33.0,-99.9,-100.00,SSW,204,6.8,8.5,-999,0.00,,---,0.01,VWS V14.01,2013-01-06 14:14:00,
2013-01-06 09:15:00,32.7,-99.9,-100.00,SW,215,4.6,8.5,-999,0.00,,---,0.01,VWS V14.01,2013-01-06 14:15:00,
2013-01-06 09:17:00,33.0,-99.9,-100.00,SSW,207,5.2,8.8,-999,0.00,,---,0.01,VWS V14.01,2013-01-06 14:17:00,
2013-01-06 09:19:00,33.5,-99.9,-100.00,SW,218,6.8,7.0,-999,0.00,,---,0.01,VWS V14.01,2013-01-06 14:19:00,
2013-01-06 09:22:00,33.0,-99.9,-100.00,SSW,208,7.6,8.5,-999,0.00,,---,0.01,VWS V14.01,2013-01-06 14:22:00,
2013-01-06 09:24:00,33.5,-99.9,-100.00,SSW,204,4.9,6.2,-999,0.00,,---,0.01,VWS V14.01,2013-01-06 14:24:00,
2013-01-06 09:27:00,33.5,-99.9,-100.00,South,187,6.1,9.5,-999,0.00,,---,0.01,VWS V14.01,2013-01-06 14:27:00,
2013-01-06 09:29:00,33.5,-99.9,-100.00,South,183,4.5,7.5,-999,0.00,,---,0.01,VWS V14.01,2013-01-06 14:29:00,
2013-01-06 09:30:00,33.7,-99.9,-100.00,SSW,202,5.2,5.2,-999,0.00,,---,0.01,VWS V14.01,2013-01-06 14:30:00,
2013-01-06 09:32:00,33.7,-99.9,-100.00,SSW,200,6.6,8.9,-999,0.00,,---,0.01,VWS V14.01,2013-01-06 14:32:00,
2013-01-06 09:33:00,33.5,-99.9,-100.00,South,176,4.7,8.8,-999,0.00,,---,0.01,VWS V14.01,2013-01-06 14:33:00,
2013-01-06 09:34:00,33.5,-99.9,-100.00,SSW,200,5.4,8.5,-999,0.00,,---,0.01,VWS V14.01,2013-01-06 14:34:00,
2013-01-06 09:35:00,33.7,-99.9,-100.00,SSW,205,6.2,8.8,-999,0.00,,---,0.01,VWS V14.01,2013-01-06 14:35:00,
2013-01-06 09:37:00,34.0,-99.9,-100.00,SSW,207,5.7,7.9,-999,0.00,,---,0.01,VWS V14.01,2013-01-06 14:37:00,
2013-01-06 09:38:00,33.7,-99.9,-100.00,South,186,8.3,8.3,-999,0.00,,---,0.01,VWS V14.01,2013-01-06 14:38:00,
2013-01-06 09:39:00,33.7,-99.9,-100.00,SSW,204,7.5,8.6,-999,0.00,,---,0.01,VWS V14.01,2013-01-06 14:39:00,
2013-01-06 09:40:00,33.7,-99.9,-100.00,SSW,205,5.2,7.5,-999,0.00,,---,0.01,VWS V14.01,2013-01-06 14:40:00,
2013-01-06 09:43:00,33.7,-99.9,-100.00,SW,228,5.6,8.6,-999,0.00,,---,0.01,VWS V14.01,2013-01-06 14:43:00,
2013-01-06 09:44:00,33.7,-99.9,-100.00,SSW,194,6.0,7.8,-999,0.00,,---,0.01,VWS V14.01,2013-01-06 14:44:00,
2013-01-06 09:45:00,33.7,-99.9,-100.00,SSW,205,5.8,6.0,-999,0.00,,---,0.01,VWS V14.01,2013-01-06 14:45:00,
2013-01-06 09:48:00,33.7,-99.9,-100.00,WSW,239,7.5,9.6,-999,0.00,,---,0.01,VWS V14.01,2013-01-06 14:48:00,
2013-01-06 09:49:00,33.7,-99.9,-100.00,SW,222,5.4,9.6,-999,0.00,,---,0.01,VWS V14.01,2013-01-06 14:49:00,
2013-01-06 09:50:00,33.7,-99.9,-100.00,SW,219,6.7,7.5,-999,0.00,,---,0.01,VWS V14.01,2013-01-06 14:50:00,
2013-01-06 09:53:00,34.2,-99.9,-100.00,SSW,204,10.6,11.1,-999,0.00,,---,0.01,VWS V14.01,2013-01-06 14:53:00,
2013-01-06 09:54:00,34.0,-99.9,-100.00,SW,229,3.2,8.0,-999,0.00,,---,0.01,VWS V14.01,2013-01-06 14:54:00,
2013-01-06 09:55:00,33.7,-99.9,-100.00,SW,229,0.0,3.2,-999,0.00,,---,0.01,VWS V14.01,2013-01-06 14:55:00,
2013-01-06 09:58:00,34.0,-99.9,-100.00,WSW,252,6.3,10.0,-999,0.00,,---,0.01,VWS V14.01,2013-01-06 14:58:00,
2013-01-06 10:00:00,34.0,-99.9,-100.00,SSW,194,8.1,8.1,-999,0.00,,---,0.01,VWS V14.01,2013-01-06 15:00:00,
2013-01-06 10:03:00,34.2,-99.9,-100.00,South,187,5.6,7.9,-999,0.00,,---,0.01,VWS V14.01,2013-01-06 15:03:00,
2013-01-06 10:05:00,34.5,-99.9,-100.00,SW,233,9.6,9.6,-999,0.00,,---,0.01,VWS V14.01,2013-01-06 15:05:00,
2013-01-06 10:08:00,34.7,-99.9,-100.00,South,188,8.3,9.0,-999,0.00,,---,0.01,VWS V14.01,2013-01-06 15:08:00,
2013-01-06 10:09:00,34.7,-99.9,-100.00,SW,221,7.9,8.1,-999,0.00,,---,0.01,VWS V14.01,2013-01-06 15:09:00,
2013-01-06 10:10:00,34.3,-99.9,-100.00,SSW,202,6.1,7.7,-999,0.00,,---,0.01,VWS V14.01,2013-01-06 15:10:00,
2013-01-06 10:13:00,34.6,-99.9,-100.00,SSW,197,4.9,7.6,-999,0.00,,---,0.01,VWS V14.01,2013-01-06 15:13:00,
2013-01-06 10:14:00,34.8,-99.9,-100.00,SW,229,7.0,10.4,-999,0.00,,---,0.01,VWS V14.01,2013-01-06 15:14:00,
2013-01-06 10:15:00,34.8,-99.9,-100.00,SW,235,4.2,7.5,-999,0.00,,---,0.01,VWS V14.01,2013-01-06 15:15:00,
2013-01-06 10:18:00,34.3,-99.9,-100.00,SW,225,9.8,9.8,-999,0.00,,---,0.01,VWS V14.01,2013-01-06 15:18:00,
2013-01-06 10:19:00,34.3,-99.9,-100.00,SW,231,6.5,8.9,-999,0.00,,---,0.01,VWS V14.01,2013-01-06 15:19:00,
2013-01-06 10:20:00,34.6,-99.9,-100.00,SW,217,8.3,9.6,-999,0.00,,---,0.01,VWS V14.01,2013-01-06 15:20:00,
2013-01-06 10:23:00,35.3,-99.9,-100.00,SSE,167,9.2,9.2,-999,0.00,,---,0.01,VWS V14.01,2013-01-06 15:23:00,
2013-01-06 10:25:00,35.0,-99.9,-100.00,SSW,195,8.5,13.0,-999,0.00,,---,0.01,VWS V14.01,2013-01-06 15:25:00,
2013-01-06 10:29:00,35.3,-99.9,-100.00,SW,221,6.0,6.7,-999,0.00,,---,0.01,VWS V14.01,2013-01-06 15:29:00,
2013-01-06 10:30:00,35.5,-99.9,-100.00,SSW,194,6.6,6.6,-999,0.00,,---,0.01,VWS V14.01,2013-01-06 15:30:00,
2013-01-06 10:34:00,35.5,-99.9,-100.00,SSW,198,7.6,7.6,-999,0.00,,---,0.01,VWS V14.01,2013-01-06 15:34:00,
2013-01-06 10:35:00,35.3,-99.9,-100.00,SW,228,10.4,10.4,-999,0.00,,---,0.01,VWS V14.01,2013-01-06 15:35:00,
2013-01-06 10:39:00,35.3,-99.9,-100.00,SW,226,11.5,11.5,-999,0.00,,---,0.01,VWS V14.01,2013-01-06 15:39:00,
2013-01-06 10:40:00,35.3,-99.9,-100.00,SW,231,9.5,9.5,-999,0.00,,---,0.01,VWS V14.01,2013-01-06 15:40:00,
2013-01-06 10:41:00,35.5,-99.9,-100.00,South,187,8.8,9.5,-999,0.00,,---,0.01,VWS V14.01,2013-01-06 15:41:00,
2013-01-06 10:44:00,34.8,-99.9,-100.00,SW,229,5.0,5.6,-999,0.00,,---,0.01,VWS V14.01,2013-01-06 15:44:00,
2013-01-06 10:45:00,35.7,-99.9,-100.00,SW,225,6.8,6.8,-999,0.00,,---,0.01,VWS V14.01,2013-01-06 15:45:00,
2013-01-06 10:49:00,35.5,-99.9,-100.00,SW,219,7.1,10.6,-999,0.00,,---,0.01,VWS V14.01,2013-01-06 15:49:00,
2013-01-06 10:50:00,35.5,-99.9,-100.00,SSW,212,6.6,9.1,-999,0.00,,---,0.01,VWS V14.01,2013-01-06 15:50:00,
2013-01-06 10:51:00,35.7,-99.9,-100.00,SSW,211,4.7,6.3,-999,0.00,,---,0.01,VWS V14.01,2013-01-06 15:51:00,
2013-01-06 10:54:00,36.0,-99.9,-100.00,SSW,197,9.1,9.1,-999,0.00,,---,0.01,VWS V14.01,2013-01-06 15:54:00,
2013-01-06 10:55:00,36.0,-99.9,-100.00,SW,217,6.5,8.0,-999,0.00,,---,0.01,VWS V14.01,2013-01-06 15:55:00,
2013-01-06 10:56:00,36.0,-99.9,-100.00,SW,225,8.4,8.4,-999,0.00,,---,0.01,VWS V14.01,2013-01-06 15:56:00,
2013-01-06 10:59:00,36.0,-99.9,-100.00,WSW,245,5.2,8.1,-999,0.00,,---,0.01,VWS V14.01,2013-01-06 15:59:00,
2013-01-06 11:00:00,36.0,-99.9,-100.00,South,183,9.7,9.7,-999,0.00,,---,0.01,VWS V14.01,2013-01-06 16:00:00,
2013-01-06 11:01:00,35.5,-99.9,-100.00,SSW,200,6.0,9.7,-999,0.00,,---,0.01,VWS V14.01,2013-01-06 16:01:00,
2013-01-06 11:04:00,36.0,-99.9,-100.00,South,181,9.3,10.6,-999,0.00,,---,0.01,VWS V14.01,2013-01-06 16:04:00,
2013-01-06 11:06:00,36.3,-99.9,-100.00,SW,224,7.3,10.4,-999,0.00,,---,0.01,VWS V14.01,2013-01-06 16:06:00,
2013-01-06 11:09:00,35.5,-99.9,-100.00,SSW,202,9.0,13.1,-999,0.00,,---,0.01,VWS V14.01,2013-01-06 16:09:00,
2013-01-06 11:11:00,36.0,-99.9,-100.00,SW,229,6.3,8.2,-999,0.00,,---,0.01,VWS V14.01,2013-01-06 16:11:00,
2013-01-06 11:14:00,36.3,-99.9,-100.00,SW,232,9.3,9.6,-999,0.00,,---,0.01,VWS V14.01,2013-01-06 16:14:00,
2013-01-06 11:16:00,36.3,-99.9,-100.00,SW,231,9.6,9.6,-999,0.00,,---,0.01,VWS V14.01,2013-01-06 16:16:00,
2013-01-06 11:19:00,36.5,-99.9,-100.00,SSW,207,5.3,8.9,-999,0.00,,---,0.01,VWS V14.01,2013-01-06 16:19:00,
2013-01-06 11:21:00,36.3,-99.9,-100.00,SW,236,8.8,8.8,-999,0.00,,---,0.01,VWS V14.01,2013-01-06 16:21:00,
2013-01-06 11:24:00,37.0,-99.9,-100.00,SSW,201,5.8,5.8,-999,0.00,,---,0.01,VWS V14.01,2013-01-06 16:24:00,
2013-01-06 11:26:00,37.0,-99.9,-100.00,WSW,243,7.5,8.9,-999,0.00,,---,0.01,VWS V14.01,2013-01-06 16:26:00,
2013-01-06 11:27:00,36.8,-99.9,-100.00,WSW,240,9.9,9.9,-999,0.00,,---,0.01,VWS V14.01,2013-01-06 16:27:00,
2013-01-06 11:30:00,36.3,-99.9,-100.00,SSW,194,10.4,10.4,-999,0.00,,---,0.01,VWS V14.01,2013-01-06 16:30:00,
2013-01-06 11:31:00,36.3,-99.9,-100.00,SW,222,9.4,9.4,-999,0.00,,---,0.01,VWS V14.01,2013-01-06 16:31:00,
2013-01-06 11:32:00,36.3,-99.9,-100.00,SW,214,9.0,9.0,-999,0.00,,---,0.01,VWS V14.01,2013-01-06 16:32:00,
2013-01-06 11:35:00,36.5,-99.9,-100.00,SSW,210,12.7,12.7,-999,0.00,,---,0.01,VWS V14.01,2013-01-06 16:35:00,
2013-01-06 11:36:00,36.3,-99.9,-100.00,SSW,195,8.3,10.3,-999,0.00,,---,0.01,VWS V14.01,2013-01-06 16:36:00,
2013-01-06 11:37:00,36.3,-99.9,-100.00,SW,221,7.8,9.5,-999,0.00,,---,0.01,VWS V14.01,2013-01-06 16:37:00,
2013-01-06 11:40:00,36.3,-99.9,-100.00,WSW,238,7.1,8.6,-999,0.00,,---,0.01,VWS V14.01,2013-01-06 16:40:00,
2013-01-06 11:41:00,36.3,-99.9,-100.00,SW,214,11.5,11.5,-999,0.00,,---,0.01,VWS V14.01,2013-01-06 16:41:00,
2013-01-06 11:42:00,36.0,-99.9,-100.00,SW,236,13.1,13.1,-999,0.00,,---,0.01,VWS V14.01,2013-01-06 16:42:00,
2013-01-06 11:45:00,36.3,-99.9,-100.00,SSW,208,8.4,10.9,-999,0.00,,---,0.02,VWS V14.01,2013-01-06 16:45:00,
2013-01-06 11:46:00,36.0,-99.9,-100.00,WSW,240,9.9,11.7,-999,0.00,,---,0.02,VWS V14.01,2013-01-06 16:46:00,
2013-01-06 11:47:00,36.0,-99.9,-100.00,WSW,242,9.8,9.9,-999,0.00,,---,0.02,VWS V14.01,2013-01-06 16:47:00,
2013-01-06 11:50:00,35.7,-99.9,-100.00,SW,224,12.1,12.1,-999,0.00,,---,0.02,VWS V14.01,2013-01-06 16:50:00,
2013-01-06 11:51:00,36.0,-99.9,-100.00,SW,215,7.7,14.4,-999,0.00,,---,0.02,VWS V14.01,2013-01-06 16:51:00,
2013-01-06 11:52:00,36.3,-99.9,-100.00,SW,214,11.4,11.9,-999,0.00,,---,0.02,VWS V14.01,2013-01-06 16:52:00,
2013-01-06 11:55:00,36.0,-99.9,-100.00,SW,221,7.5,9.8,-999,0.00,,---,0.02,VWS V14.01,2013-01-06 16:55:00,
2013-01-06 11:57:00,36.3,-99.9,-100.00,SW,236,8.7,8.7,-999,0.00,,---,0.02,VWS V14.01,2013-01-06 16:57:00,
2013-01-06 12:00:00,36.3,-99.9,-100.00,SSW,200,8.1,8.1,-999,0.00,,---,0.02,VWS V14.01,2013-01-06 17:00:00,
2013-01-06 12:02:00,36.3,-99.9,-100.00,SSW,201,5.5,7.1,-999,0.00,,---,0.02,VWS V14.01,2013-01-06 17:02:00,
2013-01-06 12:05:00,36.0,-99.9,-100.00,WSW,250,8.8,10.5,-999,0.00,,---,0.02,VWS V14.01,2013-01-06 17:05:00,
2013-01-06 12:07:00,36.0,-99.9,-100.00,SSW,205,9.0,10.4,-999,0.00,,---,0.02,VWS V14.01,2013-01-06 17:07:00,
2013-01-06 12:10:00,36.3,-99.9,-100.00,SW,236,6.0,8.1,-999,0.00,,---,0.02,VWS V14.01,2013-01-06 17:10:00,
2013-01-06 12:12:00,36.3,-99.9,-100.00,SSW,202,11.2,11.2,-999,0.00,,---,0.02,VWS V14.01,2013-01-06 17:12:00,
2013-01-06 12:15:00,36.0,-99.9,-100.00,WSW,242,8.1,13.9,-999,0.00,,---,0.02,VWS V14.01,2013-01-06 17:15:00,
2013-01-06 12:17:00,36.3,-99.9,-100.00,SSW,205,10.4,12.7,-999,0.00,,---,0.02,VWS V14.01,2013-01-06 17:17:00,
2013-01-06 12:18:00,36.3,-99.9,-100.00,SW,235,16.2,16.2,-999,0.00,,---,0.02,VWS V14.01,2013-01-06 17:18:00,
2013-01-06 12:20:00,36.5,-99.9,-100.00,SW,233,12.3,12.3,-999,0.00,,---,0.02,VWS V14.01,2013-01-06 17:20:00,
2013-01-06 12:22:00,36.0,-99.9,-100.00,SSW,208,6.6,11.5,-999,0.00,,---,0.02,VWS V14.01,2013-01-06 17:22:00,
2013-01-06 12:23:00,36.0,-99.9,-100.00,SW,222,5.7,8.8,-999,0.00,,---,0.02,VWS V14.01,2013-01-06 17:23:00,
2013-01-06 12:25:00,36.3,-99.9,-100.00,South,188,4.3,9.9,-999,0.00,,---,0.02,VWS V14.01,2013-01-06 17:25:00,
2013-01-06 12:27:00,36.3,-99.9,-100.00,WSW,253,8.1,11.3,-999,0.00,,---,0.02,VWS V14.01,2013-01-06 17:27:00,
2013-01-06 12:28:00,36.0,-99.9,-100.00,WSW,239,9.5,10.3,-999,0.00,,---,0.02,VWS V14.01,2013-01-06 17:28:00,
2013-01-06 12:31:00,36.5,-99.9,-100.00,WSW,245,7.0,7.0,-999,0.00,,---,0.02,VWS V14.01,2013-01-06 17:31:00,
2013-01-06 12:32:00,36.5,-99.9,-100.00,SSW,200,4.7,8.5,-999,0.00,,---,0.02,VWS V14.01,2013-01-06 17:32:00,
2013-01-06 12:33:00,36.8,-99.9,-100.00,SSW,207,12.1,13.3,-999,0.00,,---,0.02,VWS V14.01,2013-01-06 17:33:00,
2013-01-06 12:36:00,37.0,-99.9,-100.00,SW,236,11.7,11.7,-999,0.00,,---,0.02,VWS V14.01,2013-01-06 17:36:00,
2013-01-06 12:37:00,36.8,-99.9,-100.00,SW,215,7.3,9.2,-999,0.00,,---,0.02,VWS V14.01,2013-01-06 17:37:00,
2013-01-06 12:38:00,36.5,-99.9,-100.00,SW,232,6.6,8.0,-999,0.00,,---,0.02,VWS V14.01,2013-01-06 17:38:00,
2013-01-06 12:41:00,36.3,-99.9,-100.00,SW,222,9.9,9.9,-999,0.00,,---,0.02,VWS V14.01,2013-01-06 17:41:00,
2013-01-06 12:42:00,36.5,-99.9,-100.00,SW,235,7.6,9.3,-999,0.00,,---,0.02,VWS V14.01,2013-01-06 17:42:00,
2013-01-06 12:43:00,36.8,-99.9,-100.00,WSW,255,8.8,8.8,-999,0.00,,---,0.02,VWS V14.01,2013-01-06 17:43:00,
2013-01-06 12:46:00,36.8,-99.9,-100.00,SW,221,9.6,9.6,-999,0.00,,---,0.02,VWS V14.01,2013-01-06 17:46:00,
2013-01-06 12:47:00,36.3,-99.9,-100.00,SSW,208,6.0,6.5,-999,0.00,,---,0.02,VWS V14.01,2013-01-06 17:47:00,
2013-01-06 12:48:00,36.5,-99.9,-100.00,SW,229,4.9,8.2,-999,0.00,,---,0.02,VWS V14.01,2013-01-06 17:48:00,
2013-01-06 12:51:00,36.3,-99.9,-100.00,SW,235,5.1,8.5,-999,0.00,,---,0.02,VWS V14.01,2013-01-06 17:51:00,
2013-01-06 12:52:00,36.3,-99.9,-100.00,SW,226,6.2,8.3,-999,0.00,,---,0.02,VWS V14.01,2013-01-06 17:52:00,
2013-01-06 12:53:00,36.3,-99.9,-100.00,WSW,246,5.5,8.3,-999,0.00,,---,0.02,VWS V14.01,2013-01-06 17:53:00,
2013-01-06 12:56:00,36.5,-99.9,-100.00,SW,219,8.2,8.3,-999,0.00,,---,0.02,VWS V14.01,2013-01-06 17:56:00,
2013-01-06 12:58:00,36.8,-99.9,-100.00,SW,222,6.2,7.5,-999,0.00,,---,0.02,VWS V14.01,2013-01-06 17:58:00,
2013-01-06 13:01:00,36.5,-99.9,-100.00,South,169,4.2,8.5,-999,0.00,,---,0.02,VWS V14.01,2013-01-06 18:01:00,
2013-01-06 13:03:00,36.0,-99.9,-100.00,WSW,256,7.1,7.8,-999,0.00,,---,0.02,VWS V14.01,2013-01-06 18:03:00,
2013-01-06 13:04:00,36.3,-99.9,-100.00,SSW,208,7.4,9.0,-999,0.00,,---,0.02,VWS V14.01,2013-01-06 18:04:00,
2013-01-06 13:06:00,36.3,-99.9,-100.00,WSW,239,5.7,10.7,-999,0.00,,---,0.02,VWS V14.01,2013-01-06 18:06:00,
2013-01-06 13:08:00,36.3,-99.9,-100.00,SW,232,8.3,12.2,-999,0.00,,---,0.02,VWS V14.01,2013-01-06 18:08:00,
2013-01-06 13:09:00,36.3,-99.9,-100.00,SW,233,7.8,7.8,-999,0.00,,---,0.02,VWS V14.01,2013-01-06 18:09:00,
2013-01-06 13:11:00,36.3,-99.9,-100.00,WSW,239,7.2,7.6,-999,0.00,,---,0.02,VWS V14.01,2013-01-06 18:11:00,
2013-01-06 13:13:00,36.3,-99.9,-100.00,WSW,248,0.0,7.7,-999,0.00,,---,0.02,VWS V14.01,2013-01-06 18:13:00,
2013-01-06 13:14:00,36.3,-99.9,-100.00,SW,225,9.5,9.5,-999,0.00,,---,0.02,VWS V14.01,2013-01-06 18:14:00,
2013-01-06 13:16:00,36.3,-99.9,-100.00,WSW,240,8.6,8.6,-999,0.00,,---,0.02,VWS V14.01,2013-01-06 18:16:00,
2013-01-06 13:18:00,35.7,-99.9,-100.00,SW,225,9.7,9.7,-999,0.00,,---,0.02,VWS V14.01,2013-01-06 18:18:00,
2013-01-06 13:19:00,36.0,-99.9,-100.00,SSW,202,5.9,9.8,-999,0.00,,---,0.02,VWS V14.01,2013-01-06 18:19:00,
2013-01-06 13:22:00,35.5,-99.9,-100.00,SW,235,7.8,7.8,-999,0.00,,---,0.02,VWS V14.01,2013-01-06 18:22:00,
2013-01-06 13:23:00,35.7,-99.9,-100.00,WSW,245,6.7,10.0,-999,0.00,,---,0.02,VWS V14.01,2013-01-06 18:23:00,
2013-01-06 13:24:00,35.7,-99.9,-100.00,WSW,240,8.1,8.5,-999,0.00,,---,0.02,VWS V14.01,2013-01-06 18:24:00,
2013-01-06 13:27:00,35.7,-99.9,-100.00,SSW,200,4.8,8.4,-999,0.00,,---,0.02,VWS V14.01,2013-01-06 18:27:00,
2013-01-06 13:28:00,35.7,-99.9,-100.00,SSW,207,5.1,5.1,-999,0.00,,---,0.02,VWS V14.01,2013-01-06 18:28:00,
2013-01-06 13:29:00,36.3,-99.9,-100.00,South,187,4.8,8.1,-999,0.00,,---,0.02,VWS V14.01,2013-01-06 18:29:00,
2013-01-06 13:32:00,35.7,-99.9,-100.00,SW,231,7.5,9.6,-999,0.00,,---,0.02,VWS V14.01,2013-01-06 18:32:00,
2013-01-06 13:33:00,36.3,-99.9,-100.00,SW,228,3.1,7.9,-999,0.00,,---,0.02,VWS V14.01,2013-01-06 18:33:00,
2013-01-06 13:34:00,36.3,-99.9,-100.00,SW,214,3.3,7.5,-999,0.00,,---,0.02,VWS V14.01,2013-01-06 18:34:00,
2013-01-06 13:37:00,35.7,-99.9,-100.00,SW,229,6.2,8.8,-999,0.00,,---,0.02,VWS V14.01,2013-01-06 18:37:00,
2013-01-06 13:38:00,35.7,-99.9,-100.00,SSW,201,6.5,7.1,-999,0.00,,---,0.02,VWS V14.01,2013-01-06 18:38:00,
2013-01-06 13:39:00,35.7,-99.9,-100.00,WSW,250,6.5,7.2,-999,0.00,,---,0.02,VWS V14.01,2013-01-06 18:39:00,
2013-01-06 13:43:00,36.0,-99.9,-100.00,SSW,210,5.5,8.0,-999,0.00,,---,0.02,VWS V14.01,2013-01-06 18:43:00,
2013-01-06 13:44:00,35.5,-99.9,-100.00,WSW,238,0.0,0.0,-999,0.00,,---,0.02,VWS V14.01,2013-01-06 18:44:00,
2013-01-06 13:48:00,35.5,-99.9,-100.00,SSW,208,11.9,11.9,-999,0.00,,---,0.02,VWS V14.01,2013-01-06 18:48:00,
2013-01-06 13:49:00,36.0,-99.9,-100.00,SW,232,7.8,8.7,-999,0.00,,---,0.02,VWS V14.01,2013-01-06 18:49:00,
2013-01-06 13:53:00,35.5,-99.9,-100.00,SW,219,7.2,9.9,-999,0.00,,---,0.02,VWS V14.01,2013-01-06 18:53:00,
2013-01-06 13:54:00,35.5,-99.9,-100.00,SW,219,9.2,9.2,-999,0.00,,---,0.02,VWS V14.01,2013-01-06 18:54:00,
2013-01-06 13:58:00,35.5,-99.9,-100.00,SW,215,4.3,8.6,-999,0.00,,---,0.02,VWS V14.01,2013-01-06 18:58:00,
2013-01-06 13:59:00,35.5,-99.9,-100.00,SW,219,7.6,7.6,-999,0.00,,---,0.02,VWS V14.01,2013-01-06 18:59:00,
2013-01-06 14:03:00,35.7,-99.9,-100.00,SW,226,8.6,8.6,-999,0.00,,---,0.03,VWS V14.01,2013-01-06 19:03:00,
2013-01-06 14:04:00,35.5,-99.9,-100.00,WSW,238,7.0,8.1,-999,0.00,,---,0.03,VWS V14.01,2013-01-06 19:04:00,
2013-01-06 14:05:00,35.7,-99.9,-100.00,SW,217,3.5,5.7,-999,0.00,,---,0.03,VWS V14.01,2013-01-06 19:05:00,
2013-01-06 14:08:00,36.3,-99.9,-100.00,WSW,252,9.0,9.0,-999,0.00,,---,0.03,VWS V14.01,2013-01-06 19:08:00,
2013-01-06 14:09:00,35.7,-99.9,-100.00,SSW,201,6.9,9.0,-999,0.00,,---,0.03,VWS V14.01,2013-01-06 19:09:00,
2013-01-06 14:10:00,35.7,-99.9,-100.00,WSW,242,4.7,6.0,-999,0.00,,---,0.03,VWS V14.01,2013-01-06 19:10:00,
2013-01-06 14:13:00,36.0,-99.9,-100.00,South,190,6.0,7.8,-999,0.00,,---,0.03,VWS V14.01,2013-01-06 19:13:00,
2013-01-06 14:14:00,36.0,-99.9,-100.00,WSW,248,11.0,11.0,-999,0.00,,---,0.03,VWS V14.01,2013-01-06 19:14:00,
2013-01-06 14:15:00,36.0,-99.9,-100.00,SW,218,5.5,8.3,-999,0.00,,---,0.03,VWS V14.01,2013-01-06 19:15:00,
2013-01-06 14:18:00,36.3,-99.9,-100.00,SW,221,0.0,4.8,-999,0.00,,---,0.03,VWS V14.01,2013-01-06 19:18:00,
2013-01-06 14:19:00,36.0,-99.9,-100.00,SW,225,5.7,6.2,-999,0.00,,---,0.03,VWS V14.01,2013-01-06 19:19:00,
2013-01-06 14:20:00,36.3,-99.9,-100.00,SW,219,7.3,7.3,-999,0.00,,---,0.03,VWS V14.01,2013-01-06 19:20:00,
2013-01-06 14:24:00,36.0,-99.9,-100.00,SSW,210,8.5,8.5,-999,0.00,,---,0.03,VWS V14.01,2013-01-06 19:24:00,
2013-01-06 14:25:00,36.3,-99.9,-100.00,WSW,239,5.5,6.3,-999,0.00,,---,0.03,VWS V14.01,2013-01-06 19:25:00,
2013-01-06 14:29:00,36.3,-99.9,-100.00,SW,222,6.4,9.4,-999,0.00,,---,0.03,VWS V14.01,2013-01-06 19:29:00,
2013-01-06 14:30:00,36.5,-99.9,-100.00,SW,229,4.3,9.4,-999,0.00,,---,0.03,VWS V14.01,2013-01-06 19:30:00,
2013-01-06 14:34:00,37.0,-99.9,-100.00,WSW,248,5.9,9.6,-999,0.00,,---,0.03,VWS V14.01,2013-01-06 19:34:00,
2013-01-06 14:35:00,36.8,-99.9,-100.00,SSW,193,6.8,6.8,-999,0.00,,---,0.03,VWS V14.01,2013-01-06 19:35:00,
2013-01-06 14:39:00,36.3,-99.9,-100.00,SW,231,8.1,8.2,-999,0.00,,---,0.03,VWS V14.01,2013-01-06 19:39:00,
2013-01-06 14:40:00,36.3,-99.9,-100.00,SSW,195,5.0,9.9,-999,0.00,,---,0.03,VWS V14.01,2013-01-06 19:40:00,
2013-01-06 14:44:00,36.3,-99.9,-100.00,WSW,252,5.3,8.7,-999,0.00,,---,0.03,VWS V14.01,2013-01-06 19:44:00,
2013-01-06 14:45:00,36.3,-99.9,-100.00,WSW,246,7.2,8.1,-999,0.00,,---,0.03,VWS V14.01,2013-01-06 19:45:00,
2013-01-06 14:49:00,36.0,-99.9,-100.00,SSW,195,4.2,7.8,-999,0.00,,---,0.03,VWS V14.01,2013-01-06 19:49:00,
2013-01-06 14:51:00,36.3,-99.9,-100.00,West,259,6.7,7.8,-999,0.00,,---,0.03,VWS V14.01,2013-01-06 19:51:00,
2013-01-06 14:54:00,35.3,-99.9,-100.00,SSW,202,5.7,10.3,-999,0.00,,---,0.03,VWS V14.01,2013-01-06 19:54:00,
2013-01-06 14:56:00,35.7,-99.9,-100.00,SW,215,5.8,7.2,-999,0.00,,---,0.03,VWS V14.01,2013-01-06 19:56:00,
2013-01-06 14:59:00,35.5,-99.9,-100.00,SW,222,8.9,9.3,-999,0.00,,---,0.03,VWS V14.01,2013-01-06 19:59:00,
2013-01-06 15:01:00,35.3,-99.9,-100.00,WSW,252,4.4,9.3,-999,0.00,,---,0.03,VWS V14.01,2013-01-06 20:01:00,
2013-01-06 15:05:00,35.5,-99.9,-100.00,SSW,212,6.1,6.5,-999,0.00,,---,0.03,VWS V14.01,2013-01-06 20:05:00,
2013-01-06 15:07:00,35.5,-99.9,-100.00,WSW,242,9.4,11.3,-999,0.00,,---,0.03,VWS V14.01,2013-01-06 20:07:00,
2013-01-06 15:11:00,35.5,-99.9,-100.00,SSW,198,4.6,6.4,-999,0.00,,---,0.03,VWS V14.01,2013-01-06 20:11:00,
2013-01-06 15:13:00,35.5,-99.9,-100.00,WSW,243,8.0,8.0,-999,0.00,,---,0.03,VWS V14.01,2013-01-06 20:13:00,
2013-01-06 15:16:00,35.5,-99.9,-100.00,SW,219,6.6,6.6,-999,0.00,,---,0.03,VWS V14.01,2013-01-06 20:16:00,
2013-01-06 15:18:00,35.3,-99.9,-100.00,West,271,0.0,8.1,-999,0.00,,---,0.03,VWS V14.01,2013-01-06 20:18:00,
2013-01-06 15:21:00,35.3,-99.9,-100.00,SW,232,5.7,6.1,-999,0.00,,---,0.03,VWS V14.01,2013-01-06 20:21:00,
2013-01-06 15:23:00,35.5,-99.9,-100.00,SW,217,6.6,8.0,-999,0.00,,---,0.03,VWS V14.01,2013-01-06 20:23:00,
2013-01-06 15:26:00,35.7,-99.9,-100.00,SW,225,4.3,9.4,-999,0.00,,---,0.03,VWS V14.01,2013-01-06 20:26:00,
2013-01-06 15:27:00,35.5,-99.9,-100.00,SSW,198,4.8,4.8,-999,0.00,,---,0.03,VWS V14.01,2013-01-06 20:27:00,
2013-01-06 15:28:00,35.5,-99.9,-100.00,SSW,194,4.8,8.3,-999,0.00,,---,0.03,VWS V14.01,2013-01-06 20:28:00,
2013-01-06 15:31:00,35.5,-99.9,-100.00,WSW,238,4.8,7.1,-999,0.00,,---,0.03,VWS V14.01,2013-01-06 20:31:00,
2013-01-06 15:32:00,35.7,-99.9,-100.00,SSW,210,5.8,5.8,-999,0.00,,---,0.03,VWS V14.01,2013-01-06 20:32:00,
2013-01-06 15:33:00,35.5,-99.9,-100.00,SW,231,0.0,7.3,-999,0.00,,---,0.03,VWS V14.01,2013-01-06 20:33:00,
2013-01-06 15:36:00,35.5,-99.9,-100.00,West,259,6.4,9.9,-999,0.00,,---,0.03,VWS V14.01,2013-01-06 20:36:00,
2013-01-06 15:37:00,35.7,-99.9,-100.00,WSW,239,3.5,6.4,-999,0.00,,---,0.03,VWS V14.01,2013-01-06 20:37:00,
2013-01-06 15:39:00,35.5,-99.9,-100.00,SSW,204,5.4,7.7,-999,0.00,,---,0.03,VWS V14.01,2013-01-06 20:39:00,
2013-01-06 15:41:00,35.5,-99.9,-100.00,WSW,249,6.8,8.6,-999,0.00,,---,0.03,VWS V14.01,2013-01-06 20:41:00,
2013-01-06 15:42:00,35.3,-99.9,-100.00,WSW,256,5.4,7.7,-999,0.00,,---,0.03,VWS V14.01,2013-01-06 20:42:00,
2013-01-06 15:44:00,35.0,-99.9,-100.00,WSW,239,5.8,6.0,-999,0.00,,---,0.03,VWS V14.01,2013-01-06 20:44:00,
2013-01-06 15:47:00,35.5,-99.9,-100.00,SSW,204,4.3,7.1,-999,0.00,,---,0.03,VWS V14.01,2013-01-06 20:47:00,
2013-01-06 15:48:00,35.3,-99.9,-100.00,SW,232,5.6,7.0,-999,0.00,,---,0.03,VWS V14.01,2013-01-06 20:48:00,
2013-01-06 15:49:00,35.5,-99.9,-100.00,SW,231,4.9,4.9,-999,0.00,,---,0.03,VWS V14.01,2013-01-06 20:49:00,
2013-01-06 15:52:00,35.3,-99.9,-100.00,WSW,238,7.7,8.9,-999,0.00,,---,0.03,VWS V14.01,2013-01-06 20:52:00,
2013-01-06 15:54:00,35.3,-99.9,-100.00,SW,224,6.3,6.3,-999,0.00,,---,0.03,VWS V14.01,2013-01-06 20:54:00,
2013-01-06 15:57:00,35.3,-99.9,-100.00,SW,217,6.5,8.2,-999,0.00,,---,0.03,VWS V14.01,2013-01-06 20:57:00,
2013-01-06 15:59:00,35.0,-99.9,-100.00,West,266,4.5,7.0,-999,0.00,,---,0.03,VWS V14.01,2013-01-06 20:59:00,
2013-01-06 16:01:00,35.0,-99.9,-100.00,SW,228,5.2,7.5,-999,0.00,,---,0.03,VWS V14.01,2013-01-06 21:01:00,
2013-01-06 16:02:00,34.8,-99.9,-100.00,WSW,248,5.5,7.0,-999,0.00,,---,0.03,VWS V14.01,2013-01-06 21:02:00,
2013-01-06 16:04:00,35.0,-99.9,-100.00,SW,233,6.3,6.3,-999,0.00,,---,0.03,VWS V14.01,2013-01-06 21:04:00,
2013-01-06 16:06:00,35.0,-99.9,-100.00,South,180,6.2,7.7,-999,0.00,,---,0.03,VWS V14.01,2013-01-06 21:06:00,
2013-01-06 16:07:00,34.8,-99.9,-100.00,WSW,243,6.1,7.2,-999,0.00,,---,0.03,VWS V14.01,2013-01-06 21:07:00,
2013-01-06 16:09:00,35.0,-99.9,-100.00,SW,215,0.0,5.5,-999,0.00,,---,0.03,VWS V14.01,2013-01-06 21:09:00,
2013-01-06 16:11:00,34.6,-99.9,-100.00,West,263,7.7,7.7,-999,0.00,,---,0.03,VWS V14.01,2013-01-06 21:11:00,
2013-01-06 16:12:00,35.3,-99.9,-100.00,SW,228,4.5,6.1,-999,0.00,,---,0.03,VWS V14.01,2013-01-06 21:12:00,
2013-01-06 16:14:00,34.8,-99.9,-100.00,SSW,211,5.3,7.7,-999,0.00,,---,0.03,VWS V14.01,2013-01-06 21:14:00,
2013-01-06 16:15:00,35.3,-99.9,-100.00,WSW,245,4.5,5.3,-999,0.00,,---,0.03,VWS V14.01,2013-01-06 21:15:00,
2013-01-06 16:16:00,34.8,-99.9,-100.00,WSW,245,6.5,6.5,-999,0.00,,---,0.03,VWS V14.01,2013-01-06 21:16:00,
2013-01-06 16:17:00,34.6,-99.9,-100.00,SW,221,6.1,6.3,-999,0.00,,---,0.03,VWS V14.01,2013-01-06 21:17:00,
2013-01-06 16:19:00,34.8,-99.9,-100.00,SW,233,9.0,9.0,-999,0.00,,---,0.03,VWS V14.01,2013-01-06 21:19:00,
2013-01-06 16:20:00,34.8,-99.9,-100.00,SW,225,6.0,6.5,-999,0.00,,---,0.03,VWS V14.01,2013-01-06 21:20:00,
2013-01-06 16:21:00,34.6,-99.9,-100.00,SSW,208,4.5,6.0,-999,0.00,,---,0.03,VWS V14.01,2013-01-06 21:21:00,
2013-01-06 16:23:00,34.6,-99.9,-100.00,SW,226,6.6,6.6,-999,0.00,,---,0.03,VWS V14.01,2013-01-06 21:23:00,
2013-01-06 16:24:00,34.8,-99.9,-100.00,WSW,246,4.4,7.3,-999,0.00,,---,0.03,VWS V14.01,2013-01-06 21:24:00,
2013-01-06 16:25:00,34.6,-99.9,-100.00,WSW,256,4.8,4.8,-999,0.00,,---,0.03,VWS V14.01,2013-01-06 21:25:00,
2013-01-06 16:26:00,34.3,-99.9,-100.00,WSW,252,5.2,5.5,-999,0.00,,---,0.03,VWS V14.01,2013-01-06 21:26:00,
2013-01-06 16:28:00,34.8,-99.9,-100.00,West,260,4.7,5.8,-999,0.00,,---,0.03,VWS V14.01,2013-01-06 21:28:00,
2013-01-06 16:30:00,34.6,-99.9,-100.00,SW,221,0.0,3.0,-999,0.00,,---,0.03,VWS V14.01,2013-01-06 21:30:00,
2013-01-06 16:31:00,34.3,-99.9,-100.00,WSW,246,4.2,4.7,-999,0.00,,---,0.03,VWS V14.01,2013-01-06 21:31:00,
2013-01-06 16:33:00,34.3,-99.9,-100.00,SW,232,3.5,5.7,-999,0.00,,---,0.03,VWS V14.01,2013-01-06 21:33:00,
2013-01-06 16:35:00,34.0,-99.9,-100.00,SSW,205,6.2,8.1,-999,0.00,,---,0.03,VWS V14.01,2013-01-06 21:35:00,
2013-01-06 16:37:00,34.3,-99.9,-100.00,WSW,249,6.0,7.1,-999,0.00,,---,0.03,VWS V14.01,2013-01-06 21:37:00,
2013-01-06 16:38:00,34.0,-99.9,-100.00,SW,214,4.6,6.6,-999,0.00,,---,0.03,VWS V14.01,2013-01-06 21:38:00,
2013-01-06 16:40:00,34.0,-99.9,-100.00,SW,218,4.2,4.4,-999,0.00,,---,0.03,VWS V14.01,2013-01-06 21:40:00,
2013-01-06 16:42:00,34.0,-99.9,-100.00,WSW,243,0.0,3.0,-999,0.00,,---,0.03,VWS V14.01,2013-01-06 21:42:00,
2013-01-06 16:43:00,34.0,-99.9,-100.00,WSW,252,0.0,4.2,-999,0.00,,---,0.03,VWS V14.01,2013-01-06 21:43:00,
2013-01-06 16:45:00,34.0,-99.9,-100.00,WSW,252,0.0,0.0,-999,0.00,,---,0.03,VWS V14.01,2013-01-06 21:45:00,
2013-01-06 16:47:00,33.8,-99.9,-100.00,WSW,245,4.5,5.0,-999,0.00,,---,0.03,VWS V14.01,2013-01-06 21:47:00,
2013-01-06 16:48:00,33.8,-99.9,-100.00,WSW,245,3.4,6.3,-999,0.00,,---,0.03,VWS V14.01,2013-01-06 21:48:00,
2013-01-06 16:50:00,33.3,-99.9,-100.00,South,191,2.2,6.0,-999,0.00,,---,0.03,VWS V14.01,2013-01-06 21:50:00,
2013-01-06 16:52:00,34.0,-99.9,-100.00,WSW,243,0.0,0.0,-999,0.00,,---,0.03,VWS V14.01,2013-01-06 21:52:00,
2013-01-06 16:54:00,33.3,-99.9,-100.00,SSW,212,0.0,0.0,-999,0.00,,---,0.03,VWS V14.01,2013-01-06 21:54:00,
2013-01-06 16:55:00,33.8,-99.9,-100.00,West,263,4.8,6.0,-999,0.00,,---,0.03,VWS V14.01,2013-01-06 21:55:00,
2013-01-06 16:57:00,33.5,-99.9,-100.00,SW,231,0.0,2.4,-999,0.00,,---,0.03,VWS V14.01,2013-01-06 21:57:00,
2013-01-06 16:59:00,33.5,-99.9,-100.00,WSW,249,4.2,5.7,-999,0.00,,---,0.04,VWS V14.01,2013-01-06 21:59:00,
2013-01-06 17:00:00,33.5,-99.9,-100.00,WSW,248,5.0,5.5,-999,0.00,,---,0.04,VWS V14.01,2013-01-06 22:00:00,
2013-01-06 17:02:00,33.0,-99.9,-100.00,SW,221,0.0,0.0,-999,0.00,,---,0.04,VWS V14.01,2013-01-06 22:02:00,
2013-01-06 17:04:00,33.3,-99.9,-100.00,SW,217,2.9,5.7,-999,0.00,,---,0.04,VWS V14.01,2013-01-06 22:04:00,
2013-01-06 17:05:00,33.3,-99.9,-100.00,SW,217,0.0,0.0,-999,0.00,,---,0.04,VWS V14.01,2013-01-06 22:05:00,
2013-01-06 17:07:00,33.3,-99.9,-100.00,WSW,245,5.9,7.0,-999,0.00,,---,0.04,VWS V14.01,2013-01-06 22:07:00,
2013-01-06 17:09:00,33.3,-99.9,-100.00,SW,235,0.0,0.0,-999,0.00,,---,0.04,VWS V14.01,2013-01-06 22:09:00,
2013-01-06 17:10:00,33.3,-99.9,-100.00,WSW,248,0.0,3.5,-999,0.00,,---,0.04,VWS V14.01,2013-01-06 22:10:00,
2013-01-06 17:11:00,33.3,-99.9,-100.00,WSW,248,0.0,0.0,-999,0.00,,---,0.04,VWS V14.01,2013-01-06 22:11:00,
2013-01-06 17:12:00,33.3,-99.9,-100.00,WSW,245,0.0,3.5,-999,0.00,,---,0.04,VWS V14.01,2013-01-06 22:12:00,
2013-01-06 17:14:00,33.0,-99.9,-100.00,WSW,238,4.7,4.9,-999,0.00,,---,0.04,VWS V14.01,2013-01-06 22:14:00,
2013-01-06 17:15:00,33.0,-99.9,-100.00,WSW,240,0.0,4.8,-999,0.00,,---,0.04,VWS V14.01,2013-01-06 22:15:00,
2013-01-06 17:16:00,33.0,-99.9,-100.00,WSW,240,0.0,0.0,-999,0.00,,---,0.04,VWS V14.01,2013-01-06 22:16:00,
2013-01-06 17:17:00,32.8,-99.9,-100.00,WSW,242,0.0,3.5,-999,0.00,,---,0.04,VWS V14.01,2013-01-06 22:17:00,
2013-01-06 17:19:00,32.8,-99.9,-100.00,SW,228,0.0,5.0,-999,0.00,,---,0.04,VWS V14.01,2013-01-06 22:19:00,
2013-01-06 17:20:00,32.8,-99.9,-100.00,SSW,208,0.0,5.0,-999,0.00,,---,0.04,VWS V14.01,2013-01-06 22:20:00,
2013-01-06 17:21:00,32.8,-99.9,-100.00,SSW,208,0.0,0.0,-999,0.00,,---,0.04,VWS V14.01,2013-01-06 22:21:00,
2013-01-06 17:22:00,32.8,-99.9,-100.00,WSW,248,0.0,3.5,-999,0.00,,---,0.04,VWS V14.01,2013-01-06 22:22:00,
2013-01-06 17:24:00,33.3,-99.9,-100.00,WSW,243,4.5,5.7,-999,0.00,,---,0.04,VWS V14.01,2013-01-06 22:24:00,
2013-01-06 17:26:00,32.5,-99.9,-100.00,SW,236,3.2,5.2,-999,0.00,,---,0.04,VWS V14.01,2013-01-06 22:26:00,
2013-01-06 17:27:00,32.5,-99.9,-100.00,South,180,0.0,6.8,-999,0.00,,---,0.04,VWS V14.01,2013-01-06 22:27:00,
2013-01-06 17:29:00,32.5,-99.9,-100.00,SW,217,5.8,5.8,-999,0.00,,---,0.04,VWS V14.01,2013-01-06 22:29:00,
2013-01-06 17:31:00,32.5,-99.9,-100.00,SW,226,0.0,0.0,-999,0.00,,---,0.04,VWS V14.01,2013-01-06 22:31:00,
2013-01-06 17:32:00,32.5,-99.9,-100.00,SW,221,0.0,7.0,-999,0.00,,---,0.04,VWS V14.01,2013-01-06 22:32:00,
2013-01-06 17:34:00,32.5,-99.9,-100.00,SSW,208,0.0,6.0,-999,0.00,,---,0.04,VWS V14.01,2013-01-06 22:34:00,
2013-01-06 17:36:00,32.5,-99.9,-100.00,SW,235,6.3,7.3,-999,0.00,,---,0.04,VWS V14.01,2013-01-06 22:36:00,
2013-01-06 17:38:00,32.5,-99.9,-100.00,SSW,210,0.0,0.0,-999,0.00,,---,0.04,VWS V14.01,2013-01-06 22:38:00,
2013-01-06 17:39:00,32.5,-99.9,-100.00,WSW,242,4.6,4.6,-999,0.00,,---,0.04,VWS V14.01,2013-01-06 22:39:00,
2013-01-06 17:41:00,32.5,-99.9,-100.00,WSW,238,6.1,7.5,-999,0.00,,---,0.04,VWS V14.01,2013-01-06 22:41:00,
2013-01-06 17:43:00,32.8,-99.9,-100.00,WSW,243,0.0,0.0,-999,0.00,,---,0.04,VWS V14.01,2013-01-06 22:43:00,
2013-01-06 17:45:00,32.5,-99.9,-100.00,SSW,212,7.5,7.5,-999,0.00,,---,0.04,VWS V14.01,2013-01-06 22:45:00,
2013-01-06 17:46:00,32.5,-99.9,-100.00,SSW,207,0.0,4.7,-999,0.00,,---,0.04,VWS V14.01,2013-01-06 22:46:00,
2013-01-06 17:47:00,32.5,-99.9,-100.00,SSW,207,2.6,2.6,-999,0.00,,---,0.04,VWS V14.01,2013-01-06 22:47:00,
2013-01-06 17:48:00,32.0,-99.9,-100.00,SW,219,6.8,6.8,-999,0.00,,---,0.04,VWS V14.01,2013-01-06 22:48:00,
2013-01-06 17:50:00,32.5,-99.9,-100.00,SW,219,3.4,3.4,-999,0.00,,---,0.04,VWS V14.01,2013-01-06 22:50:00,
2013-01-06 17:51:00,32.5,-99.9,-100.00,WSW,243,5.2,5.2,-999,0.00,,---,0.04,VWS V14.01,2013-01-06 22:51:00,
2013-01-06 17:52:00,32.5,-99.9,-100.00,SW,228,3.5,6.0,-999,0.00,,---,0.04,VWS V14.01,2013-01-06 22:52:00,
2013-01-06 17:53:00,32.5,-99.9,-100.00,SW,217,0.0,0.0,-999,0.00,,---,0.04,VWS V14.01,2013-01-06 22:53:00,
2013-01-06 17:55:00,32.5,-99.9,-100.00,SW,229,0.0,0.0,-999,0.00,,---,0.04,VWS V14.01,2013-01-06 22:55:00,
2013-01-06 17:56:00,32.5,-99.9,-100.00,WSW,242,4.5,4.5,-999,0.00,,---,0.04,VWS V14.01,2013-01-06 22:56:00,
2013-01-06 17:57:00,32.5,-99.9,-100.00,SW,233,0.0,4.9,-999,0.00,,---,0.04,VWS V14.01,2013-01-06 22:57:00,
2013-01-06 17:58:00,32.5,-99.9,-100.00,WSW,238,0.0,3.4,-999,0.00,,---,0.04,VWS V14.01,2013-01-06 22:58:00,
2013-01-06 18:00:00,32.5,-99.9,-100.00,WSW,238,0.0,0.0,-999,0.00,,---,0.04,VWS V14.01,2013-01-06 23:00:00,
2013-01-06 18:01:00,32.5,-99.9,-100.00,West,270,0.0,0.0,-999,0.00,,---,0.04,VWS V14.01,2013-01-06 23:01:00,
2013-01-06 18:02:00,32.5,-99.9,-100.00,West,270,0.0,0.0,-999,0.00,,---,0.04,VWS V14.01,2013-01-06 23:02:00,
2013-01-06 18:03:00,32.0,-99.9,-100.00,West,270,0.0,0.0,-999,0.00,,---,0.04,VWS V14.01,2013-01-06 23:03:00,
2013-01-06 18:05:00,32.5,-99.9,-100.00,SW,225,4.8,4.8,-999,0.00,,---,0.04,VWS V14.01,2013-01-06 23:05:00,
2013-01-06 18:06:00,32.8,-99.9,-100.00,SSW,207,4.2,5.0,-999,0.00,,---,0.04,VWS V14.01,2013-01-06 23:06:00,
2013-01-06 18:07:00,32.5,-99.9,-100.00,SSW,207,0.0,3.4,-999,0.00,,---,0.04,VWS V14.01,2013-01-06 23:07:00,
2013-01-06 18:08:00,32.5,-99.9,-100.00,SSW,207,0.0,0.0,-999,0.00,,---,0.04,VWS V14.01,2013-01-06 23:08:00,
2013-01-06 18:10:00,32.5,-99.9,-100.00,SSW,207,0.0,0.0,-999,0.00,,---,0.04,VWS V14.01,2013-01-06 23:10:00,
2013-01-06 18:11:00,32.5,-99.9,-100.00,SW,226,2.7,5.2,-999,0.00,,---,0.04,VWS V14.01,2013-01-06 23:11:00,
2013-01-06 18:12:00,32.3,-99.9,-100.00,SW,226,0.0,0.0,-999,0.00,,---,0.04,VWS V14.01,2013-01-06 23:12:00,
2013-01-06 18:13:00,32.3,-99.9,-100.00,WSW,238,0.0,4.3,-999,0.00,,---,0.04,VWS V14.01,2013-01-06 23:13:00,
2013-01-06 18:15:00,32.5,-99.9,-100.00,SW,226,0.0,6.1,-999,0.00,,---,0.04,VWS V14.01,2013-01-06 23:15:00,
2013-01-06 18:16:00,32.5,-99.9,-100.00,SW,226,0.0,3.2,-999,0.00,,---,0.04,VWS V14.01,2013-01-06 23:16:00,
2013-01-06 18:17:00,32.5,-99.9,-100.00,SW,226,0.0,0.0,-999,0.00,,---,0.04,VWS V14.01,2013-01-06 23:17:00,
2013-01-06 18:18:00,32.5,-99.9,-100.00,SW,228,2.9,5.8,-999,0.00,,---,0.04,VWS V14.01,2013-01-06 23:18:00,
2013-01-06 18:20:00,32.8,-99.9,-100.00,WSW,249,0.0,4.6,-999,0.00,,---,0.04,VWS V14.01,2013-01-06 23:20:00,
2013-01-06 18:21:00,32.5,-99.9,-100.00,WSW,249,0.0,0.0,-999,0.00,,---,0.04,VWS V14.01,2013-01-06 23:21:00,
2013-01-06 18:22:00,32.5,-99.9,-100.00,WSW,249,0.0,0.0,-999,0.00,,---,0.04,VWS V14.01,2013-01-06 23:22:00,
2013-01-06 18:23:00,32.5,-99.9,-100.00,SW,229,4.5,4.5,-999,0.00,,---,0.04,VWS V14.01,2013-01-06 23:23:00,
2013-01-06 18:25:00,32.5,-99.9,-100.00,SW,218,0.0,0.0,-999,0.00,,---,0.04,VWS V14.01,2013-01-06 23:25:00,
2013-01-06 18:26:00,32.5,-99.9,-100.00,SW,235,6.0,6.5,-999,0.00,,---,0.04,VWS V14.01,2013-01-06 23:26:00,
2013-01-06 18:27:00,32.5,-99.9,-100.00,South,186,0.0,6.0,-999,0.00,,---,0.04,VWS V14.01,2013-01-06 23:27:00,
2013-01-06 18:29:00,32.5,-99.9,-100.00,WSW,249,0.0,2.8,-999,0.00,,---,0.04,VWS V14.01,2013-01-06 23:29:00,
2013-01-06 18:30:00,32.8,-99.9,-100.00,South,184,0.0,3.3,-999,0.00,,---,0.04,VWS V14.01,2013-01-06 23:30:00,
2013-01-06 18:32:00,32.5,-99.9,-100.00,South,184,0.0,0.0,-999,0.00,,---,0.04,VWS V14.01,2013-01-06 23:32:00,
2013-01-06 18:34:00,32.5,-99.9,-100.00,South,184,0.0,0.0,-999,0.00,,---,0.04,VWS V14.01,2013-01-06 23:34:00,
2013-01-06 18:35:00,32.5,-99.9,-100.00,South,184,0.0,3.0,-999,0.00,,---,0.04,VWS V14.01,2013-01-06 23:35:00,
2013-01-06 18:37:00,32.5,-99.9,-100.00,WSW,243,0.0,0.0,-999,0.00,,---,0.04,VWS V14.01,2013-01-06 23:37:00,
2013-01-06 18:39:00,32.8,-99.9,-100.00,WSW,243,0.0,0.0,-999,0.00,,---,0.04,VWS V14.01,2013-01-06 23:39:00,
2013-01-06 18:41:00,32.5,-99.9,-100.00,WSW,243,0.0,0.0,-999,0.00,,---,0.04,VWS V14.01,2013-01-06 23:41:00,
2013-01-06 18:42:00,32.3,-99.9,-100.00,WSW,243,0.0,0.0,-999,0.00,,---,0.04,VWS V14.01,2013-01-06 23:42:00,
2013-01-06 18:44:00,32.5,-99.9,-100.00,WSW,243,0.0,0.0,-999,0.00,,---,0.04,VWS V14.01,2013-01-06 23:44:00,
2013-01-06 18:46:00,32.5,-99.9,-100.00,WSW,243,0.0,0.0,-999,0.00,,---,0.04,VWS V14.01,2013-01-06 23:46:00,
2013-01-06 18:47:00,32.3,-99.9,-100.00,SW,226,5.2,6.1,-999,0.00,,---,0.04,VWS V14.01,2013-01-06 23:47:00,
2013-01-06 18:48:00,32.8,-99.9,-100.00,SW,224,3.0,5.9,-999,0.00,,---,0.04,VWS V14.01,2013-01-06 23:48:00,
2013-01-06 18:49:00,32.5,-99.9,-100.00,SW,224,0.0,0.0,-999,0.00,,---,0.04,VWS V14.01,2013-01-06 23:49:00,
2013-01-06 18:51:00,32.5,-99.9,-100.00,WSW,250,5.0,5.5,-999,0.00,,---,0.04,VWS V14.01,2013-01-06 23:51:00,
2013-01-06 18:52:00,32.5,-99.9,-100.00,WSW,256,4.7,5.9,-999,0.00,,---,0.04,VWS V14.01,2013-01-06 23:52:00,
2013-01-06 18:53:00,32.5,-99.9,-100.00,SSW,205,0.0,5.0,-999,0.00,,---,0.04,VWS V14.01,2013-01-06 23:53:00,
2013-01-06 18:54:00,32.5,-99.9,-100.00,SSW,205,0.0,0.0,-999,0.00,,---,0.04,VWS V14.01,2013-01-06 23:54:00,
2013-01-06 18:56:00,32.5,-99.9,-100.00,SSW,205,0.0,0.0,-999,0.00,,---,0.04,VWS V14.01,2013-01-06 23:56:00,
2013-01-06 18:57:00,32.5,-99.9,-100.00,SSW,205,0.0,0.0,-999,0.00,,---,0.04,VWS V14.01,2013-01-06 23:57:00,
2013-01-06 18:58:00,32.5,-99.9,-100.00,SSW,205,0.0,0.0,-999,0.00,,---,0.04,VWS V14.01,2013-01-06 23:58:00,
2013-01-06 18:59:00,32.3,-99.9,-100.00,SSW,205,0.0,0.0,-999,0.00,,---,0.04,VWS V14.01,2013-01-06 23:59:00,
2013-01-06 19:01:00,32.5,-99.9,-100.00,South,187,0.0,4.1,-999,0.00,,---,0.04,VWS V14.01,2013-01-07 00:01:00,
2013-01-06 19:02:00,32.5,-99.9,-100.00,SW,229,2.9,4.5,-999,0.00,,---,0.04,VWS V14.01,2013-01-07 00:02:00,
2013-01-06 19:03:00,32.3,-99.9,-100.00,SW,214,4.2,5.5,-999,0.00,,---,0.04,VWS V14.01,2013-01-07 00:03:00,
2013-01-06 19:04:00,32.5,-99.9,-100.00,SW,221,6.2,7.6,-999,0.00,,---,0.04,VWS V14.01,2013-01-07 00:04:00,
2013-01-06 19:06:00,32.5,-99.9,-100.00,WSW,243,0.0,6.1,-999,0.00,,---,0.04,VWS V14.01,2013-01-07 00:06:00,
2013-01-06 19:07:00,32.5,-99.9,-100.00,West,259,2.8,2.8,-999,0.00,,---,0.04,VWS V14.01,2013-01-07 00:07:00,
2013-01-06 19:08:00,32.5,-99.9,-100.00,SW,226,0.0,2.9,-999,0.00,,---,0.04,VWS V14.01,2013-01-07 00:08:00,
2013-01-06 19:09:00,32.5,-99.9,-100.00,SW,226,0.0,0.0,-999,0.00,,---,0.04,VWS V14.01,2013-01-07 00:09:00,
2013-01-06 19:11:00,32.5,-99.9,-100.00,SW,226,3.0,5.0,-999,0.00,,---,0.04,VWS V14.01,2013-01-07 00:11:00,
2013-01-06 19:12:00,32.5,-99.9,-100.00,WSW,252,0.0,0.0,-999,0.00,,---,0.04,VWS V14.01,2013-01-07 00:12:00,
2013-01-06 19:14:00,32.5,-99.9,-100.00,WSW,256,0.0,2.8,-999,0.00,,---,0.04,VWS V14.01,2013-01-07 00:14:00,
2013-01-06 19:16:00,32.5,-99.9,-100.00,SSW,198,0.0,0.0,-999,0.00,,---,0.04,VWS V14.01,2013-01-07 00:16:00,
2013-01-06 19:17:00,32.5,-99.9,-100.00,SW,225,0.0,3.2,-999,0.00,,---,0.04,VWS V14.01,2013-01-07 00:17:00,
2013-01-06 19:19:00,32.5,-99.9,-100.00,WSW,248,0.0,5.0,-999,0.00,,---,0.04,VWS V14.01,2013-01-07 00:19:00,
2013-01-06 19:21:00,32.5,-99.9,-100.00,SW,226,5.0,7.8,-999,0.00,,---,0.04,VWS V14.01,2013-01-07 00:21:00,
2013-01-06 19:23:00,32.3,-99.9,-100.00,SW,233,0.0,0.0,-999,0.00,,---,0.04,VWS V14.01,2013-01-07 00:23:00,
2013-01-06 19:24:00,32.8,-99.9,-100.00,SW,233,1.9,1.9,-999,0.00,,---,0.04,VWS V14.01,2013-01-07 00:24:00,
2013-01-06 19:27:00,32.5,-99.9,-100.00,SW,232,0.0,0.0,-999,0.00,,---,0.04,VWS V14.01,2013-01-07 00:27:00,
2013-01-06 19:28:00,32.0,-99.9,-100.00,SW,232,0.0,0.0,-999,0.00,,---,0.04,VWS V14.01,2013-01-07 00:28:00,
2013-01-06 19:29:00,32.5,-99.9,-100.00,SW,236,7.4,7.5,-999,0.00,,---,0.04,VWS V14.01,2013-01-07 00:29:00,
2013-01-06 19:32:00,32.5,-99.9,-100.00,SW,224,0.0,0.0,-999,0.00,,---,0.04,VWS V14.01,2013-01-07 00:32:00,
2013-01-06 19:33:00,32.5,-99.9,-100.00,SW,224,0.0,0.0,-999,0.00,,---,0.04,VWS V14.01,2013-01-07 00:33:00,
2013-01-06 19:34:00,32.5,-99.9,-100.00,SW,224,0.0,0.0,-999,0.00,,---,0.04,VWS V14.01,2013-01-07 00:34:00,
2013-01-06 19:37:00,32.3,-99.9,-100.00,WSW,248,0.0,0.0,-999,0.00,,---,0.04,VWS V14.01,2013-01-07 00:37:00,
2013-01-06 19:38:00,32.8,-99.9,-100.00,WSW,248,0.0,0.0,-999,0.00,,---,0.04,VWS V14.01,2013-01-07 00:38:00,
2013-01-06 19:39:00,32.5,-99.9,-100.00,WSW,257,0.0,5.3,-999,0.00,,---,0.04,VWS V14.01,2013-01-07 00:39:00,
2013-01-06 19:42:00,32.5,-99.9,-100.00,WNW,285,0.0,0.0,-999,0.00,,---,0.04,VWS V14.01,2013-01-07 00:42:00,
2013-01-06 19:43:00,32.5,-99.9,-100.00,WNW,285,0.0,0.0,-999,0.00,,---,0.04,VWS V14.01,2013-01-07 00:43:00,
2013-01-06 19:44:00,32.8,-99.9,-100.00,WNW,285,0.0,0.0,-999,0.00,,---,0.04,VWS V14.01,2013-01-07 00:44:00,
2013-01-06 19:47:00,32.5,-99.9,-100.00,West,260,4.5,5.2,-999,0.00,,---,0.04,VWS V14.01,2013-01-07 00:47:00,
2013-01-06 19:48:00,32.5,-99.9,-100.00,WSW,245,3.5,4.5,-999,0.00,,---,0.04,VWS V14.01,2013-01-07 00:48:00,
2013-01-06 19:49:00,32.3,-99.9,-100.00,WSW,245,0.0,0.0,-999,0.00,,---,0.04,VWS V14.01,2013-01-07 00:49:00,
2013-01-06 19:53:00,32.8,-99.9,-100.00,WSW,240,0.0,3.2,-999,0.00,,---,0.04,VWS V14.01,2013-01-07 00:53:00,
2013-01-06 19:55:00,33.0,-99.9,-100.00,SW,215,0.0,0.0,-999,0.00,,---,0.04,VWS V14.01,2013-01-07 00:55:00,
2013-01-06 19:58:00,32.5,-99.9,-100.00,SW,215,0.0,0.0,-999,0.00,,---,0.04,VWS V14.01,2013-01-07 00:58:00,
2013-01-06 20:00:00,32.5,-99.9,-100.00,SW,215,0.0,0.0,-999,0.00,,---,0.04,VWS V14.01,2013-01-07 01:00:00,
2013-01-06 20:03:00,32.5,-99.9,-100.00,SW,215,0.0,0.0,-999,0.00,,---,0.04,VWS V14.01,2013-01-07 01:03:00,
2013-01-06 20:05:00,32.8,-99.9,-100.00,SW,215,0.0,0.0,-999,0.00,,---,0.04,VWS V14.01,2013-01-07 01:05:00,
2013-01-06 20:08:00,32.5,-99.9,-100.00,SW,215,0.0,0.0,-999,0.00,,---,0.04,VWS V14.01,2013-01-07 01:08:00,
2013-01-06 20:10:00,32.5,-99.9,-100.00,SW,215,0.0,0.0,-999,0.00,,---,0.04,VWS V14.01,2013-01-07 01:10:00,
2013-01-06 20:13:00,32.5,-99.9,-100.00,SW,215,0.0,0.0,-999,0.00,,---,0.04,VWS V14.01,2013-01-07 01:13:00,
2013-01-06 20:15:00,32.8,-99.9,-100.00,SSE,158,0.0,0.0,-999,0.00,,---,0.04,VWS V14.01,2013-01-07 01:15:00,
2013-01-06 20:18:00,32.8,-99.9,-100.00,SSE,158,0.0,0.0,-999,0.00,,---,0.04,VWS V14.01,2013-01-07 01:18:00,
2013-01-06 20:20:00,32.5,-99.9,-100.00,SSW,202,5.4,5.4,-999,0.00,,---,0.04,VWS V14.01,2013-01-07 01:20:00,
2013-01-06 20:23:00,32.5,-99.9,-100.00,SW,217,3.2,3.2,-999,0.00,,---,0.04,VWS V14.01,2013-01-07 01:23:00,
2013-01-06 20:25:00,32.5,-99.9,-100.00,WSW,243,3.5,6.6,-999,0.00,,---,0.04,VWS V14.01,2013-01-07 01:25:00,
2013-01-06 20:28:00,32.5,-99.9,-100.00,WSW,255,0.0,0.0,-999,0.00,,---,0.04,VWS V14.01,2013-01-07 01:28:00,
2013-01-06 20:29:00,32.3,-99.9,-100.00,WSW,255,0.0,0.0,-999,0.00,,---,0.04,VWS V14.01,2013-01-07 01:29:00,
2013-01-06 20:30:00,32.3,-99.9,-100.00,WSW,257,7.1,10.9,-999,0.00,,---,0.04,VWS V14.01,2013-01-07 01:30:00,
2013-01-06 20:33:00,32.5,-99.9,-100.00,WSW,239,8.0,8.0,-999,0.00,,---,0.04,VWS V14.01,2013-01-07 01:33:00,
2013-01-06 20:34:00,32.3,-99.9,-100.00,WSW,240,0.0,6.6,-999,0.00,,---,0.04,VWS V14.01,2013-01-07 01:34:00,
2013-01-06 20:35:00,32.5,-99.9,-100.00,WSW,245,0.0,7.0,-999,0.00,,---,0.04,VWS V14.01,2013-01-07 01:35:00,
2013-01-06 20:38:00,32.3,-99.9,-100.00,West,274,0.0,0.0,-999,0.00,,---,0.04,VWS V14.01,2013-01-07 01:38:00,
2013-01-06 20:39:00,32.5,-99.9,-100.00,West,274,0.0,0.0,-999,0.00,,---,0.04,VWS V14.01,2013-01-07 01:39:00,
2013-01-06 20:40:00,32.5,-99.9,-100.00,West,274,0.0,0.0,-999,0.00,,---,0.04,VWS V14.01,2013-01-07 01:40:00,
2013-01-06 20:43:00,32.3,-99.9,-100.00,WSW,255,0.0,3.4,-999,0.00,,---,0.04,VWS V14.01,2013-01-07 01:43:00,
2013-01-06 20:45:00,32.3,-99.9,-100.00,WSW,246,0.0,0.0,-999,0.00,,---,0.04,VWS V14.01,2013-01-07 01:45:00,
2013-01-06 20:46:00,32.5,-99.9,-100.00,NNE,20,7.1,7.1,-999,0.00,,---,0.04,VWS V14.01,2013-01-07 01:46:00,
2013-01-06 20:48:00,31.7,-99.9,-100.00,NW,305,3.5,5.8,-999,0.00,,---,0.04,VWS V14.01,2013-01-07 01:48:00,
2013-01-06 20:50:00,32.0,-99.9,-100.00,WNW,283,0.0,0.0,-999,0.00,,---,0.04,VWS V14.01,2013-01-07 01:50:00,
2013-01-06 20:51:00,31.7,-99.9,-100.00,WSW,253,3.4,3.4,-999,0.00,,---,0.04,VWS V14.01,2013-01-07 01:51:00,
2013-01-06 20:53:00,32.3,-99.9,-100.00,WSW,242,4.1,4.4,-999,0.00,,---,0.04,VWS V14.01,2013-01-07 01:53:00,
2013-01-06 20:55:00,31.7,-99.9,-100.00,WSW,242,0.0,0.0,-999,0.00,,---,0.04,VWS V14.01,2013-01-07 01:55:00,
2013-01-06 20:56:00,31.7,-99.9,-100.00,WSW,242,0.0,0.0,-999,0.00,,---,0.04,VWS V14.01,2013-01-07 01:56:00,
2013-01-06 20:58:00,32.0,-99.9,-100.00,WNW,284,0.0,7.0,-999,0.00,,---,0.04,VWS V14.01,2013-01-07 01:58:00,
2013-01-06 21:00:00,31.7,-99.9,-100.00,WSW,255,0.0,0.0,-999,0.00,,---,0.04,VWS V14.01,2013-01-07 02:00:00,
2013-01-06 21:01:00,31.5,-99.9,-100.00,WSW,255,0.0,0.0,-999,0.00,,---,0.04,VWS V14.01,2013-01-07 02:01:00,
2013-01-06 21:03:00,31.7,-99.9,-100.00,WSW,245,6.9,6.9,-999,0.00,,---,0.04,VWS V14.01,2013-01-07 02:03:00,
2013-01-06 21:05:00,31.5,-99.9,-100.00,West,262,0.0,0.0,-999,0.00,,---,0.04,VWS V14.01,2013-01-07 02:05:00,
2013-01-06 21:06:00,31.7,-99.9,-100.00,West,262,0.0,0.0,-999,57.11,,---,0.08,VWS V14.01,2013-01-07 02:06:00,
2013-01-06 21:08:00,31.7,-99.9,-100.00,West,277,0.0,4.5,-999,57.11,,---,0.08,VWS V14.01,2013-01-07 02:08:00,
2013-01-06 21:10:00,31.7,-99.9,-100.00,West,277,0.0,0.0,-999,57.11,,---,0.08,VWS V14.01,2013-01-07 02:10:00,
2013-01-06 21:11:00,31.5,-99.9,-100.00,SSW,197,7.3,7.3,-999,57.11,,---,0.08,VWS V14.01,2013-01-07 02:11:00,
2013-01-06 21:13:00,31.5,-99.9,-100.00,SW,228,0.0,4.3,-999,57.11,,---,0.08,VWS V14.01,2013-01-07 02:13:00,
2013-01-06 21:15:00,31.7,-99.9,-100.00,SSW,204,0.0,3.4,-999,57.11,,---,0.08,VWS V14.01,2013-01-07 02:15:00,
2013-01-06 21:16:00,31.7,-99.9,-100.00,SSW,204,0.0,0.0,-999,57.11,,---,0.08,VWS V14.01,2013-01-07 02:16:00,
2013-01-06 21:17:00,31.5,-99.9,-100.00,WSW,249,5.2,5.2,-999,57.11,,---,0.08,VWS V14.01,2013-01-07 02:17:00,
2013-01-06 21:19:00,31.5,-99.9,-100.00,South,180,0.0,2.5,-999,57.11,,---,0.08,VWS V14.01,2013-01-07 02:19:00,
2013-01-06 21:20:00,31.5,-99.9,-100.00,North,1,1.8,2.8,-999,57.11,,---,0.08,VWS V14.01,2013-01-07 02:20:00,
2013-01-06 21:21:00,31.7,-99.9,-100.00,North,1,0.0,2.8,-999,57.11,,---,0.08,VWS V14.01,2013-01-07 02:21:00,
2013-01-06 21:22:00,31.7,-99.9,-100.00,North,1,0.0,0.0,-999,57.11,,---,0.08,VWS V14.01,2013-01-07 02:22:00,
2013-01-06 21:24:00,31.0,-99.9,-100.00,West,280,0.0,0.0,-999,57.11,,---,0.09,VWS V14.01,2013-01-07 02:24:00,
2013-01-06 21:26:00,31.7,-99.9,-100.00,SW,236,3.2,3.2,-999,57.11,,---,0.12,VWS V14.01,2013-01-07 02:26:00,
2013-01-06 21:27:00,32.0,-99.9,-100.00,WSW,250,4.5,8.7,-999,57.11,,---,0.12,VWS V14.01,2013-01-07 02:27:00,
2013-01-06 21:29:00,31.5,-99.9,-100.00,SSW,202,5.0,5.2,-999,57.11,,---,0.12,VWS V14.01,2013-01-07 02:29:00,
2013-01-06 21:31:00,31.7,-99.9,-100.00,SW,235,4.3,6.9,-999,57.11,,---,0.12,VWS V14.01,2013-01-07 02:31:00,
2013-01-06 21:32:00,31.5,-99.9,-100.00,WSW,238,3.0,3.0,-999,57.11,,---,0.12,VWS V14.01,2013-01-07 02:32:00,
2013-01-06 21:34:00,31.3,-99.9,-100.00,WSW,238,0.0,0.0,-999,57.11,,---,0.12,VWS V14.01,2013-01-07 02:34:00,
2013-01-06 21:36:00,31.3,-99.9,-100.00,SW,221,0.0,5.6,-999,57.11,,---,0.12,VWS V14.01,2013-01-07 02:36:00,
2013-01-06 21:37:00,31.5,-99.9,-100.00,SW,221,0.0,0.0,-999,57.11,,---,0.12,VWS V14.01,2013-01-07 02:37:00,
2013-01-06 21:39:00,31.3,-99.9,-100.00,SW,221,0.0,0.0,-999,57.11,,---,0.12,VWS V14.01,2013-01-07 02:39:00,
2013-01-06 21:41:00,31.3,-99.9,-100.00,SW,231,6.5,6.5,-999,57.11,,---,0.12,VWS V14.01,2013-01-07 02:41:00,
2013-01-06 21:42:00,31.0,-99.9,-100.00,SW,235,4.2,5.7,-999,57.11,,---,0.12,VWS V14.01,2013-01-07 02:42:00,
2013-01-06 21:44:00,31.7,-99.9,-100.00,WSW,245,5.9,6.6,-999,57.11,,---,0.12,VWS V14.01,2013-01-07 02:44:00,
2013-01-06 21:46:00,31.5,-99.9,-100.00,WSW,238,3.2,7.8,-999,57.11,,---,0.12,VWS V14.01,2013-01-07 02:46:00,
2013-01-06 21:47:00,31.5,-99.9,-100.00,WSW,238,0.0,0.0,-999,57.11,,---,0.12,VWS V14.01,2013-01-07 02:47:00,
2013-01-06 21:49:00,31.5,-99.9,-100.00,WSW,243,4.5,7.9,-999,57.11,,---,0.12,VWS V14.01,2013-01-07 02:49:00,
2013-01-06 21:51:00,31.3,-99.9,-100.00,SSW,198,0.0,2.7,-999,0.00,,---,0.13,VWS V14.01,2013-01-07 02:51:00,
2013-01-06 21:53:00,31.5,-99.9,-100.00,SSW,198,0.0,0.0,-999,0.00,,---,0.13,VWS V14.01,2013-01-07 02:53:00,
2013-01-06 21:54:00,31.0,-99.9,-100.00,WNW,287,4.4,7.9,-999,0.00,,---,0.13,VWS V14.01,2013-01-07 02:54:00,
2013-01-06 21:56:00,31.3,-99.9,-100.00,SW,236,0.0,3.5,-999,0.00,,---,0.13,VWS V14.01,2013-01-07 02:56:00,
2013-01-06 21:58:00,31.5,-99.9,-100.00,SW,236,0.0,0.0,-999,0.00,,---,0.13,VWS V14.01,2013-01-07 02:58:00,
2013-01-06 21:59:00,31.7,-99.9,-100.00,SW,236,0.0,0.0,-999,0.00,,---,0.13,VWS V14.01,2013-01-07 02:59:00,
2013-01-06 22:01:00,31.7,-99.9,-100.00,SSW,200,0.0,3.2,-999,0.00,,---,0.13,VWS V14.01,2013-01-07 03:01:00,
2013-01-06 22:03:00,31.5,-99.9,-100.00,SSW,200,0.0,0.0,-999,0.00,,---,0.13,VWS V14.01,2013-01-07 03:03:00,
2013-01-06 22:04:00,31.3,-99.9,-100.00,SSW,200,0.0,0.0,-999,0.00,,---,0.13,VWS V14.01,2013-01-07 03:04:00,
2013-01-06 22:06:00,31.0,-99.9,-100.00,WNW,285,0.0,0.0,-999,0.00,,---,0.13,VWS V14.01,2013-01-07 03:06:00,
2013-01-06 22:08:00,31.3,-99.9,-100.00,SW,235,5.8,7.4,-999,0.00,,---,0.13,VWS V14.01,2013-01-07 03:08:00,
2013-01-06 22:09:00,31.3,-99.9,-100.00,West,280,0.0,3.4,-999,0.00,,---,0.13,VWS V14.01,2013-01-07 03:09:00,
2013-01-06 22:12:00,31.7,-99.9,-100.00,WSW,250,0.0,10.0,-999,0.00,,---,0.13,VWS V14.01,2013-01-07 03:12:00,
2013-01-06 22:13:00,31.5,-99.9,-100.00,West,263,5.2,6.7,-999,0.00,,---,0.13,VWS V14.01,2013-01-07 03:13:00,
2013-01-06 22:14:00,31.7,-99.9,-100.00,West,263,0.0,0.0,-999,0.00,,---,0.13,VWS V14.01,2013-01-07 03:14:00,
2013-01-06 22:17:00,31.3,-99.9,-100.00,West,263,0.0,0.0,-999,0.00,,---,0.13,VWS V14.01,2013-01-07 03:17:00,
2013-01-06 22:19:00,31.3,-99.9,-100.00,WSW,257,6.5,6.5,-999,0.00,,---,0.13,VWS V14.01,2013-01-07 03:19:00,
2013-01-06 22:21:00,31.7,-99.9,-100.00,SW,215,3.3,6.5,-999,0.00,,---,0.13,VWS V14.01,2013-01-07 03:21:00,
2013-01-06 22:22:00,31.5,-99.9,-100.00,WSW,242,4.4,4.8,-999,0.00,,---,0.13,VWS V14.01,2013-01-07 03:22:00,
2013-01-06 22:24:00,31.3,-99.9,-100.00,WSW,238,0.0,9.9,-999,0.00,,---,0.13,VWS V14.01,2013-01-07 03:24:00,
2013-01-06 22:27:00,31.7,-99.9,-100.00,WSW,238,0.0,0.0,-999,0.00,,---,0.13,VWS V14.01,2013-01-07 03:27:00,
2013-01-06 22:29:00,31.3,-99.9,-100.00,SW,221,0.0,0.0,-999,0.00,,---,0.13,VWS V14.01,2013-01-07 03:29:00,
2013-01-06 22:32:00,31.0,-99.9,-100.00,WSW,250,0.0,3.5,-999,0.00,,---,0.13,VWS V14.01,2013-01-07 03:32:00,
2013-01-06 22:34:00,31.5,-99.9,-100.00,SW,214,0.0,0.0,-999,0.00,,---,0.13,VWS V14.01,2013-01-07 03:34:00,
2013-01-06 22:35:00,31.3,-99.9,-100.00,SW,214,1.2,1.2,-999,0.00,,---,0.13,VWS V14.01,2013-01-07 03:35:00,
2013-01-06 22:37:00,31.0,-99.9,-100.00,WSW,243,3.2,4.3,-999,0.00,,---,0.13,VWS V14.01,2013-01-07 03:37:00,
2013-01-06 22:39:00,31.3,-99.9,-100.00,SSW,204,4.8,6.6,-999,0.00,,---,0.13,VWS V14.01,2013-01-07 03:39:00,
2013-01-06 22:42:00,31.5,-99.9,-100.00,SW,228,4.7,6.7,-999,0.00,,---,0.13,VWS V14.01,2013-01-07 03:42:00,
2013-01-06 22:44:00,31.3,-99.9,-100.00,SW,218,5.0,5.0,-999,0.00,,---,0.13,VWS V14.01,2013-01-07 03:44:00,
2013-01-06 22:45:00,31.5,-99.9,-100.00,South,183,3.1,6.3,-999,0.00,,---,0.13,VWS V14.01,2013-01-07 03:45:00,
2013-01-06 22:47:00,31.0,-99.9,-100.00,SW,232,0.0,0.0,-999,0.00,,---,0.13,VWS V14.01,2013-01-07 03:47:00,
2013-01-06 22:49:00,31.5,-99.9,-100.00,SW,236,0.0,0.0,-999,0.00,,---,0.13,VWS V14.01,2013-01-07 03:49:00,
2013-01-06 22:50:00,31.0,-99.9,-100.00,SW,236,0.0,0.0,-999,0.00,,---,0.13,VWS V14.01,2013-01-07 03:50:00,
2013-01-06 22:52:00,30.8,-99.9,-100.00,SW,224,0.0,0.0,-999,0.00,,---,0.13,VWS V14.01,2013-01-07 03:52:00,
2013-01-06 22:54:00,31.0,-99.9,-100.00,SW,226,0.0,3.4,-999,0.00,,---,0.13,VWS V14.01,2013-01-07 03:54:00,
2013-01-06 22:55:00,31.0,-99.9,-100.00,SW,231,6.1,6.1,-999,0.00,,---,0.13,VWS V14.01,2013-01-07 03:55:00,
2013-01-06 22:57:00,31.5,-99.9,-100.00,South,186,3.4,6.0,-999,0.00,,---,0.13,VWS V14.01,2013-01-07 03:57:00,